Observation data for Fort Lancaster on 12/09/2018      Previous  Date       Current Mesonet Observations  Soil Data  Daily Summary Page  Observations in Plain Language
KLA1 090600Z 02001KT 04/03 A3033 RMK A01 T00380033  RH  096%=      5-min Rain = 0
KLA1 090601Z 02001KT 04/03 A3033 RMK A01 T00380033  RH  096%=      5-min Rain = 0
KLA1 090602Z 02001KT 04/03 A3033 RMK A01 T00380032  RH  096%=      5-min Rain = 0
KLA1 090603Z 02001KT 04/03 A3033 RMK A01 T00380033  RH  096%=      5-min Rain = 0
KLA1 090604Z 02000KT 04/03 A3033 RMK A01 T00380033  RH  096%=      5-min Rain = 0
KLA1 090605Z 00000KT 04/03 A3033 RMK A01 T00370032  RH  096%=      5-min Rain = 0
KLA1 090606Z 00000KT 04/03 A3033 RMK A01 T00370032  RH  096%=      5-min Rain = 0
KLA1 090607Z 02000KT 04/03 A3033 RMK A01 T00370031  RH  096%=      5-min Rain = 0
KLA1 090608Z 02001KT 04/03 A3032 RMK A01 T00360030  RH  096%=      5-min Rain = 0
KLA1 090609Z 02000KT 04/03 A3032 RMK A01 T00350030  RH  096%=      5-min Rain = 0
KLA1 090610Z 00000KT 04/03 A3032 RMK A01 T00350030  RH  097%=      5-min Rain = 0
KLA1 090611Z 00000KT 03/03 A3032 RMK A01 T00340029  RH  097%=      5-min Rain = 0
KLA1 090612Z 00000KT 03/03 A3032 RMK A01 T00330028  RH  097%=      5-min Rain = 0
KLA1 090613Z 02000KT 03/03 A3032 RMK A01 T00330029  RH  097%=      5-min Rain = 0
KLA1 090614Z 02001KT 03/03 A3032 RMK A01 T00330030  RH  098%=      5-min Rain = 0
KLA1 090615Z 02001KT 03/03 A3032 RMK A01 T00330030  RH  098%=      5-min Rain = 0
KLA1 090616Z 02001KT 03/03 A3032 RMK A01 T00330030  RH  098%=      5-min Rain = 0
KLA1 090617Z 02001KT 03/03 A3032 RMK A01 T00330030  RH  098%=      5-min Rain = 0
KLA1 090618Z 36001KT 03/03 A3032 RMK A01 T00320029  RH  098%=      5-min Rain = 0
KLA1 090619Z 35001KT 03/03 A3032 RMK A01 T00320029  RH  098%=      5-min Rain = 0
KLA1 090620Z 35000KT 03/03 A3032 RMK A01 T00320029  RH  098%=      5-min Rain = 0
KLA1 090621Z 00000KT 03/03 A3032 RMK A01 T00320030  RH  099%=      5-min Rain = 0
KLA1 090622Z 00000KT 03/03 A3032 RMK A01 T00320030  RH  099%=      5-min Rain = 0
KLA1 090623Z 00000KT 03/03 A3032 RMK A01 T00310030  RH  099%=      5-min Rain = 0
KLA1 090624Z 00000KT 03/03 A3032 RMK A01 T00310030  RH  099%=      5-min Rain = 0
KLA1 090625Z 35000KT 03/03 A3032 RMK A01 T00310030  RH  100%=      5-min Rain = 0
KLA1 090626Z 35000KT 03/03 A3032 RMK A01 T00310030  RH  100%=      5-min Rain = 0
KLA1 090627Z 01001KT 03/03 A3033 RMK A01 T00310030  RH  100%=      5-min Rain = 0
KLA1 090628Z 01002KT 03/03 A3033 RMK A01 T00310030  RH  100%=      5-min Rain = 0
KLA1 090629Z 01002KT 03/03 A3033 RMK A01 T00310031  RH  100%=      5-min Rain = 0
KLA1 090630Z 01002KT 03/03 A3032 RMK A01 T00310031  RH  100%=      5-min Rain = 0
KLA1 090631Z 00001KT 03/03 A3032 RMK A01 T00310030  RH  100%=      5-min Rain = 0
KLA1 090632Z 35000KT 03/03 A3032 RMK A01 T00290028  RH  099%=      5-min Rain = 0
KLA1 090633Z 00000KT 03/03 A3032 RMK A01 T00290027  RH  099%=      5-min Rain = 0
KLA1 090634Z 00000KT 03/03 A3032 RMK A01 T00280027  RH  099%=      5-min Rain = 0
KLA1 090635Z 21000KT 03/03 A3032 RMK A01 T00280027  RH  099%=      5-min Rain = 0
KLA1 090636Z 21000KT 03/03 A3032 RMK A01 T00270026  RH  099%=      5-min Rain = 0
KLA1 090637Z 21000KT 03/03 A3032 RMK A01 T00260025  RH  099%=      5-min Rain = 0
KLA1 090638Z 21000KT 03/03 A3033 RMK A01 T00260025  RH  099%=      5-min Rain = 0
KLA1 090639Z 21000KT 03/03 A3033 RMK A01 T00270026  RH  100%=      5-min Rain = 0
KLA1 090640Z 22001KT 03/03 A3033 RMK A01 T00270027  RH  100%=      5-min Rain = 0
KLA1 090641Z 23001KT 03/03 A3033 RMK A01 T00280028  RH  100%=      5-min Rain = 0
KLA1 090642Z 25001KT 03/03 A3032 RMK A01 T00280028  RH  100%=      5-min Rain = 0
KLA1 090643Z 26000KT 03/03 A3032 RMK A01 T00280028  RH  100%=      5-min Rain = 0
KLA1 090644Z 26000KT 03/03 A3032 RMK A01 T00280028  RH  100%=      5-min Rain = 0
KLA1 090645Z 26000KT 03/03 A3032 RMK A01 T00280028  RH  100%=      5-min Rain = 0
KLA1 090646Z 00000KT 03/03 A3032 RMK A01 T00280028  RH  100%=      5-min Rain = 0
KLA1 090647Z 00000KT 03/03 A3032 RMK A01 T00280027  RH  100%=      5-min Rain = 0
KLA1 090648Z 00000KT 03/03 A3032 RMK A01 T00270026  RH  100%=      5-min Rain = 0
KLA1 090649Z 00000KT 03/03 A3032 RMK A01 T00260026  RH  099%=      5-min Rain = 0
KLA1 090650Z 00000KT 03/03 A3032 RMK A01 T00260026  RH  100%=      5-min Rain = 0
KLA1 090651Z 00000KT 03/03 A3032 RMK A01 T00260025  RH  099%=      5-min Rain = 0
KLA1 090652Z 26000KT 02/02 A3032 RMK A01 T00240022  RH  099%=      5-min Rain = 0
KLA1 090653Z 26001KT 02/02 A3032 RMK A01 T00230021  RH  099%=      5-min Rain = 0
KLA1 090654Z 27001KT 02/02 A3032 RMK A01 T00220021  RH  099%=      5-min Rain = 0
KLA1 090655Z 29000KT 02/02 A3032 RMK A01 T00220020  RH  099%=      5-min Rain = 0
KLA1 090656Z 29001KT 02/02 A3032 RMK A01 T00210019  RH  099%=      5-min Rain = 0
KLA1 090657Z 30001KT 02/02 A3032 RMK A01 T00210020  RH  100%=      5-min Rain = 0
KLA1 090658Z 29001KT 02/02 A3032 RMK A01 T00220021  RH  100%=      5-min Rain = 0
KLA1 090659Z 31001KT 02/02 A3032 RMK A01 T00220022  RH  100%=      5-min Rain = 0
KLA1 090700Z 32001KT 02/02 A3032 RMK A01 T00220022  RH  100%=      5-min Rain = 0
KLA1 090701Z 32001KT 02/02 A3032 RMK A01 T00220022  RH  100%=      5-min Rain = 0
KLA1 090702Z 31001KT 02/02 A3032 RMK A01 T00220022  RH  100%=      5-min Rain = 0
KLA1 090703Z 32001KT 02/02 A3032 RMK A01 T00220022  RH  100%=      5-min Rain = 0
KLA1 090704Z 31001KT 02/02 A3032 RMK A01 T00220022  RH  100%=      5-min Rain = 0
KLA1 090705Z 30001KT 02/02 A3032 RMK A01 T00220021  RH  100%=      5-min Rain = 0
KLA1 090706Z 30001KT 02/02 A3032 RMK A01 T00210021  RH  100%=      5-min Rain = 0
KLA1 090707Z 31002KT 02/02 A3032 RMK A01 T00210021  RH  100%=      5-min Rain = 0
KLA1 090708Z 31001KT 02/02 A3032 RMK A01 T00200020  RH  100%=      5-min Rain = 0
KLA1 090709Z 34001KT 02/02 A3032 RMK A01 T00200020  RH  100%=      5-min Rain = 0
KLA1 090710Z 35001KT 02/02 A3032 RMK A01 T00190019  RH  100%=      5-min Rain = 0
KLA1 090711Z 35001KT 02/02 A3032 RMK A01 T00190018  RH  100%=      5-min Rain = 0
KLA1 090712Z 34001KT 02/02 A3031 RMK A01 T00190019  RH  100%=      5-min Rain = 0
KLA1 090713Z 35001KT 02/02 A3031 RMK A01 T00190019  RH  100%=      5-min Rain = 0
KLA1 090714Z 35001KT 02/02 A3031 RMK A01 T00180017  RH  100%=      5-min Rain = 0
KLA1 090715Z 00000KT 02/02 A3031 RMK A01 T00170016  RH  100%=      5-min Rain = 0
KLA1 090716Z 00000KT 02/02 A3031 RMK A01 T00160016  RH  100%=      5-min Rain = 0
KLA1 090717Z 00000KT 02/02 A3031 RMK A01 T00160016  RH  100%=      5-min Rain = 0
KLA1 090718Z 00000KT 02/02 A3031 RMK A01 T00150015  RH  100%=      5-min Rain = 0
KLA1 090719Z 00000KT 02/01 A3031 RMK A01 T00150014  RH  100%=      5-min Rain = 0
KLA1 090720Z 00000KT 01/01 A3031 RMK A01 T00140014  RH  100%=      5-min Rain = 0
KLA1 090721Z 00000KT 01/01 A3032 RMK A01 T00140014  RH  100%=      5-min Rain = 0
KLA1 090722Z 00000KT 02/02 A3031 RMK A01 T00150015  RH  100%=      5-min Rain = 0
KLA1 090723Z 00000KT 02/02 A3031 RMK A01 T00150015  RH  100%=      5-min Rain = 0
KLA1 090724Z 01000KT 02/02 A3031 RMK A01 T00150015  RH  100%=      5-min Rain = 0
KLA1 090725Z 01000KT 02/02 A3031 RMK A01 T00150015  RH  100%=      5-min Rain = 0
KLA1 090726Z 02001KT 02/02 A3031 RMK A01 T00160016  RH  100%=      5-min Rain = 0
KLA1 090727Z 02001KT 02/02 A3031 RMK A01 T00160016  RH  100%=      5-min Rain = 0
KLA1 090728Z 02000KT 02/02 A3031 RMK A01 T00160016  RH  100%=      5-min Rain = 0
KLA1 090729Z 00000KT 02/02 A3031 RMK A01 T00170017  RH  100%=      5-min Rain = 0
KLA1 090730Z 00000KT 02/02 A3031 RMK A01 T00170017  RH  100%=      5-min Rain = 0
KLA1 090731Z 02000KT 02/02 A3031 RMK A01 T00180017  RH  100%=      5-min Rain = 0
KLA1 090732Z 01001KT 02/02 A3031 RMK A01 T00180018  RH  100%=      5-min Rain = 0
KLA1 090733Z 01001KT 02/02 A3031 RMK A01 T00180018  RH  100%=      5-min Rain = 0
KLA1 090734Z 01000KT 02/02 A3031 RMK A01 T00180017  RH  100%=      5-min Rain = 0
KLA1 090735Z 01001KT 02/02 A3031 RMK A01 T00170017  RH  100%=      5-min Rain = 0
KLA1 090736Z 01001KT 02/02 A3031 RMK A01 T00180018  RH  100%=      5-min Rain = 0
KLA1 090737Z 01002KT 02/02 A3031 RMK A01 T00190019  RH  100%=      5-min Rain = 0
KLA1 090738Z 01002KT 02/02 A3031 RMK A01 T00180018  RH  100%=      5-min Rain = 0
KLA1 090739Z 00002KT 02/02 A3031 RMK A01 T00170017  RH  100%=      5-min Rain = 0
KLA1 090740Z 00002KT 02/02 A3031 RMK A01 T00160016  RH  100%=      5-min Rain = 0
KLA1 090741Z 00002KT 02/02 A3031 RMK A01 T00150015  RH  100%=      5-min Rain = 0
KLA1 090742Z 01002KT 02/02 A303 RMK A01 T00150015  RH  100%=      5-min Rain = 0
KLA1 090743Z 01002KT 01/01 A303 RMK A01 T00140014  RH  100%=      5-min Rain = 0
KLA1 090744Z 00003KT 01/01 A303 RMK A01 T00140014  RH  100%=      5-min Rain = 0
KLA1 090745Z 00003KT 01/01 A303 RMK A01 T00140014  RH  100%=      5-min Rain = 0
KLA1 090746Z 00003KT 01/01 A303 RMK A01 T00140014  RH  100%=      5-min Rain = 0
KLA1 090747Z 00003KT 01/01 A303 RMK A01 T00140014  RH  100%=      5-min Rain = 0
KLA1 090748Z 36002KT 01/01 A303 RMK A01 T00140014  RH  100%=      5-min Rain = 0
KLA1 090749Z 35002KT 02/01 A303 RMK A01 T00150014  RH  100%=      5-min Rain = 0
KLA1 090750Z 34001KT 02/02 A303 RMK A01 T00150015  RH  100%=      5-min Rain = 0
KLA1 090751Z 33001KT 02/02 A303 RMK A01 T00150015  RH  100%=      5-min Rain = 0
KLA1 090752Z 26001KT 02/02 A303 RMK A01 T00150015  RH  100%=      5-min Rain = 0
KLA1 090753Z 24001KT 02/01 A303 RMK A01 T00150014  RH  100%=      5-min Rain = 0
KLA1 090754Z 23001KT 01/01 A303 RMK A01 T00140014  RH  100%=      5-min Rain = 0
KLA1 090755Z 23001KT 01/01 A303 RMK A01 T00140013  RH  100%=      5-min Rain = 0
KLA1 090756Z 25001KT 01/01 A303 RMK A01 T00140014  RH  100%=      5-min Rain = 0
KLA1 090757Z 26001KT 02/02 A303 RMK A01 T00150015  RH  100%=      5-min Rain = 0
KLA1 090758Z 27001KT 02/02 A303 RMK A01 T00150015  RH  100%=      5-min Rain = 0
KLA1 090759Z 27002KT 02/02 A303 RMK A01 T00150015  RH  100%=      5-min Rain = 0
KLA1 090800Z 27002KT 01/01 A303 RMK A01 T00140014  RH  100%=      5-min Rain = 0
KLA1 090801Z 27002KT 01/01 A303 RMK A01 T00140014  RH  100%=      5-min Rain = 0
KLA1 090802Z 27003KT 02/01 A303 RMK A01 T00150014  RH  100%=      5-min Rain = 0
KLA1 090803Z 27003KT 02/02 A303 RMK A01 T00150015  RH  100%=      5-min Rain = 0
KLA1 090804Z 27002KT 02/02 A303 RMK A01 T00150015  RH  100%=      5-min Rain = 0
KLA1 090805Z 28002KT 02/02 A303 RMK A01 T00150015  RH  100%=      5-min Rain = 0
KLA1 090806Z 28002KT 02/01 A303 RMK A01 T00150014  RH  100%=      5-min Rain = 0
KLA1 090807Z 28002KT 01/01 A303 RMK A01 T00140014  RH  100%=      5-min Rain = 0
KLA1 090808Z 28002KT 01/01 A303 RMK A01 T00130013  RH  100%=      5-min Rain = 0
KLA1 090809Z 27002KT 01/01 A303 RMK A01 T00130013  RH  100%=      5-min Rain = 0
KLA1 090810Z 28002KT 01/01 A303 RMK A01 T00130013  RH  100%=      5-min Rain = 0
KLA1 090811Z 28002KT 01/01 A303 RMK A01 T00130012  RH  100%=      5-min Rain = 0
KLA1 090812Z 29002KT 01/01 A303 RMK A01 T00120012  RH  100%=      5-min Rain = 0
KLA1 090813Z 29002KT 01/01 A303 RMK A01 T00120012  RH  100%=      5-min Rain = 0
KLA1 090814Z 29002KT 01/01 A303 RMK A01 T00110011  RH  100%=      5-min Rain = 0
KLA1 090815Z 29002KT 01/01 A303 RMK A01 T00110011  RH  100%=      5-min Rain = 0
KLA1 090816Z 30002KT 01/01 A303 RMK A01 T00110011  RH  100%=      5-min Rain = 0
KLA1 090817Z 30002KT 01/01 A303 RMK A01 T00110011  RH  100%=      5-min Rain = 0
KLA1 090818Z 31002KT 01/01 A303 RMK A01 T00110011  RH  100%=      5-min Rain = 0
KLA1 090819Z 30002KT 01/01 A303 RMK A01 T00110011  RH  100%=      5-min Rain = 0
KLA1 090820Z 29001KT 01/01 A303 RMK A01 T00100010  RH  100%=      5-min Rain = 0
KLA1 090821Z 29002KT 01/01 A303 RMK A01 T00100010  RH  100%=      5-min Rain = 0
KLA1 090822Z 29002KT 01/01 A303 RMK A01 T00100010  RH  100%=      5-min Rain = 0
KLA1 090823Z 29002KT 01/01 A303 RMK A01 T00100010  RH  100%=      5-min Rain = 0
KLA1 090824Z 30002KT 01/01 A303 RMK A01 T00100010  RH  100%=      5-min Rain = 0
KLA1 090825Z 30002KT 01/01 A303 RMK A01 T00100010  RH  100%=      5-min Rain = 0
KLA1 090826Z 30002KT 01/01 A303 RMK A01 T00110010  RH  100%=      5-min Rain = 0
KLA1 090827Z 33001KT 01/01 A303 RMK A01 T00100010  RH  100%=      5-min Rain = 0
KLA1 090828Z 35001KT 01/01 A303 RMK A01 T00100010  RH  100%=      5-min Rain = 0
KLA1 090829Z 36001KT 01/01 A303 RMK A01 T00090009  RH  100%=      5-min Rain = 0
KLA1 090830Z 01001KT 01/01 A303 RMK A01 T00090009  RH  100%=      5-min Rain = 0
KLA1 090831Z 36001KT 01/01 A303 RMK A01 T00090009  RH  100%=      5-min Rain = 0
KLA1 090832Z 34000KT 01/01 A303 RMK A01 T00090009  RH  100%=      5-min Rain = 0
KLA1 090833Z 35001KT 01/01 A303 RMK A01 T00090009  RH  100%=      5-min Rain = 0
KLA1 090834Z 34000KT 01/01 A303 RMK A01 T00090009  RH  100%=      5-min Rain = 0
KLA1 090835Z 01001KT 01/01 A303 RMK A01 T00090009  RH  100%=      5-min Rain = 0
KLA1 090836Z 00001KT 01/01 A303 RMK A01 T00090008  RH  100%=      5-min Rain = 0
KLA1 090837Z 33001KT 01/01 A303 RMK A01 T00090009  RH  100%=      5-min Rain = 0
KLA1 090838Z 33001KT 01/01 A303 RMK A01 T00090009  RH  100%=      5-min Rain = 0
KLA1 090839Z 34000KT 01/01 A303 RMK A01 T00080008  RH  100%=      5-min Rain = 0
KLA1 090840Z 00000KT 01/01 A303 RMK A01 T00080008  RH  100%=      5-min Rain = 0
KLA1 090841Z 33001KT 01/01 A303 RMK A01 T00080008  RH  100%=      5-min Rain = 0
KLA1 090842Z 32001KT 01/01 A303 RMK A01 T00080008  RH  100%=      5-min Rain = 0
KLA1 090843Z 32000KT 01/01 A3031 RMK A01 T00080008  RH  100%=      5-min Rain = 0
KLA1 090844Z 33000KT 01/01 A3031 RMK A01 T00080008  RH  100%=      5-min Rain = 0
KLA1 090845Z 35001KT 01/01 A3031 RMK A01 T00090008  RH  100%=      5-min Rain = 0
KLA1 090846Z 36001KT 01/01 A3031 RMK A01 T00090009  RH  100%=      5-min Rain = 0
KLA1 090847Z 34001KT 01/01 A3031 RMK A01 T00090009  RH  100%=      5-min Rain = 0
KLA1 090848Z 35001KT 01/01 A3031 RMK A01 T00090009  RH  100%=      5-min Rain = 0
KLA1 090849Z 34001KT 01/01 A3031 RMK A01 T00080008  RH  100%=      5-min Rain = 0
KLA1 090850Z 34001KT 01/01 A3031 RMK A01 T00080008  RH  100%=      5-min Rain = 0
KLA1 090851Z 33001KT 01/01 A3031 RMK A01 T00080008  RH  100%=      5-min Rain = 0
KLA1 090852Z 31001KT 01/01 A303 RMK A01 T00080008  RH  100%=      5-min Rain = 0
KLA1 090853Z 30001KT 01/01 A3031 RMK A01 T00080008  RH  100%=      5-min Rain = 0
KLA1 090854Z 30002KT 01/01 A3031 RMK A01 T00090009  RH  100%=      5-min Rain = 0
KLA1 090855Z 30002KT 01/01 A3031 RMK A01 T00090009  RH  100%=      5-min Rain = 0
KLA1 090856Z 30002KT 01/01 A3031 RMK A01 T00090009  RH  100%=      5-min Rain = 0
KLA1 090857Z 29002KT 01/01 A3031 RMK A01 T00090009  RH  100%=      5-min Rain = 0
KLA1 090858Z 30003KT 01/01 A3031 RMK A01 T00090009  RH  100%=      5-min Rain = 0
KLA1 090859Z 31003KT 01/01 A3031 RMK A01 T00080008  RH  100%=      5-min Rain = 0
KLA1 090900Z 29003KT 01/01 A3031 RMK A01 T00080008  RH  100%=      5-min Rain = 0
KLA1 090901Z 28002KT 01/01 A3031 RMK A01 T00070007  RH  100%=      5-min Rain = 0
KLA1 090902Z 30001KT 01/01 A3031 RMK A01 T00070007  RH  100%=      5-min Rain = 0
KLA1 090903Z 31002KT 01/01 A3031 RMK A01 T00070007  RH  100%=      5-min Rain = 0
KLA1 090904Z 30001KT 01/01 A3031 RMK A01 T00070007  RH  100%=      5-min Rain = 0
KLA1 090905Z 30001KT 01/01 A3031 RMK A01 T00060006  RH  100%=      5-min Rain = 0
KLA1 090906Z 30001KT 01/01 A3031 RMK A01 T00060006  RH  100%=      5-min Rain = 0
KLA1 090907Z 33001KT 01/01 A3031 RMK A01 T00060006  RH  100%=      5-min Rain = 0
KLA1 090908Z 34000KT 01/01 A3031 RMK A01 T00050005  RH  100%=      5-min Rain = 0
KLA1 090909Z 35000KT 01/01 A3031 RMK A01 T00050005  RH  100%=      5-min Rain = 0
KLA1 090910Z 36000KT 00/00 A3031 RMK A01 T00040004  RH  100%=      5-min Rain = 0
KLA1 090911Z 01001KT 00/00 A3031 RMK A01 T00030003  RH  100%=      5-min Rain = 0
KLA1 090912Z 33001KT 00/00 A3031 RMK A01 T00020002  RH  100%=      5-min Rain = 0
KLA1 090913Z 30001KT 00/00 A3031 RMK A01 T00020002  RH  100%=      5-min Rain = 0
KLA1 090914Z 33000KT 00/00 A3031 RMK A01 T00030003  RH  100%=      5-min Rain = 0
KLA1 090915Z 34000KT 00/00 A3031 RMK A01 T00040004  RH  100%=      5-min Rain = 0
KLA1 090916Z 30000KT 00/00 A3031 RMK A01 T00040004  RH  100%=      5-min Rain = 0
KLA1 090917Z 35000KT 00/00 A3031 RMK A01 T00030003  RH  100%=      5-min Rain = 0
KLA1 090918Z 34000KT 00/00 A3031 RMK A01 T00030003  RH  100%=      5-min Rain = 0
KLA1 090919Z 28001KT 01/00 A3031 RMK A01 T00050004  RH  100%=      5-min Rain = 0
KLA1 090920Z 31001KT 01/01 A3031 RMK A01 T00050005  RH  100%=      5-min Rain = 0
KLA1 090921Z 33001KT 01/01 A3031 RMK A01 T00060006  RH  100%=      5-min Rain = 0
KLA1 090922Z 33001KT 01/01 A3031 RMK A01 T00060006  RH  100%=      5-min Rain = 0
KLA1 090923Z 34000KT 01/01 A3031 RMK A01 T00060006  RH  100%=      5-min Rain = 0
KLA1 090924Z 32001KT 01/01 A3031 RMK A01 T00060006  RH  100%=      5-min Rain = 0
KLA1 090925Z 33001KT 01/01 A3031 RMK A01 T00070007  RH  100%=      5-min Rain = 0
KLA1 090926Z 34001KT 01/01 A3031 RMK A01 T00070007  RH  100%=      5-min Rain = 0
KLA1 090927Z 32001KT 01/01 A3031 RMK A01 T00070007  RH  100%=      5-min Rain = 0
KLA1 090928Z 32001KT 01/01 A3031 RMK A01 T00060006  RH  100%=      5-min Rain = 0
KLA1 090929Z 31000KT 01/01 A3031 RMK A01 T00060006  RH  100%=      5-min Rain = 0
KLA1 090930Z 36000KT 01/01 A3031 RMK A01 T00060006  RH  100%=      5-min Rain = 0
KLA1 090931Z 34001KT 01/01 A3031 RMK A01 T00050005  RH  100%=      5-min Rain = 0
KLA1 090932Z 33002KT 00/00 A3031 RMK A01 T00040004  RH  100%=      5-min Rain = 0
KLA1 090933Z 32002KT 00/00 A3031 RMK A01 T00030003  RH  100%=      5-min Rain = 0
KLA1 090934Z 32002KT 00/00 A3031 RMK A01 T00030002  RH  100%=      5-min Rain = 0
KLA1 090935Z 32001KT 00/00 A3031 RMK A01 T00030003  RH  100%=      5-min Rain = 0
KLA1 090936Z 32001KT 00/00 A3031 RMK A01 T00030003  RH  100%=      5-min Rain = 0
KLA1 090937Z 33001KT 00/00 A3031 RMK A01 T00040004  RH  100%=      5-min Rain = 0
KLA1 090938Z 35001KT 00/00 A3031 RMK A01 T00040004  RH  100%=      5-min Rain = 0
KLA1 090939Z 35001KT 00/00 A3031 RMK A01 T00040004  RH  100%=      5-min Rain = 0
KLA1 090940Z 00002KT 01/00 A3031 RMK A01 T00050004  RH  100%=      5-min Rain = 0
KLA1 090941Z 00001KT 00/00 A3031 RMK A01 T00040004  RH  100%=      5-min Rain = 0
KLA1 090942Z 01002KT 00/00 A3031 RMK A01 T00040004  RH  100%=      5-min Rain = 0
KLA1 090943Z 01002KT 00/00 A3031 RMK A01 T00030003  RH  100%=      5-min Rain = 0
KLA1 090944Z 01003KT 00/00 A3031 RMK A01 T00040003  RH  100%=      5-min Rain = 0
KLA1 090945Z 01003KT 00/00 A303 RMK A01 T00040003  RH  100%=      5-min Rain = 0
KLA1 090946Z 01003KT 00/00 A303 RMK A01 T00030003  RH  100%=      5-min Rain = 0
KLA1 090947Z 01002KT 00/00 A303 RMK A01 T00040003  RH  100%=      5-min Rain = 0
KLA1 090948Z 01002KT 00/00 A303 RMK A01 T00040003  RH  100%=      5-min Rain = 0
KLA1 090949Z 01002KT 00/00 A303 RMK A01 T00030003  RH  100%=      5-min Rain = 0
KLA1 090950Z 01002KT 00/00 A303 RMK A01 T00040004  RH  100%=      5-min Rain = 0
KLA1 090951Z 01002KT 00/00 A303 RMK A01 T00040004  RH  100%=      5-min Rain = 0
KLA1 090952Z 01002KT 01/01 A303 RMK A01 T00050005  RH  100%=      5-min Rain = 0
KLA1 090953Z 01002KT 01/00 A303 RMK A01 T00050004  RH  100%=      5-min Rain = 0
KLA1 090954Z 01002KT 01/01 A303 RMK A01 T00050005  RH  100%=      5-min Rain = 0
KLA1 090955Z 01002KT 01/00 A303 RMK A01 T00050004  RH  100%=      5-min Rain = 0
KLA1 090956Z 01002KT 00/00 A303 RMK A01 T00040004  RH  100%=      5-min Rain = 0
KLA1 090957Z 01001KT 00/00 A303 RMK A01 T00030003  RH  100%=      5-min Rain = 0
KLA1 090958Z 01000KT 00/00 A303 RMK A01 T00020002  RH  100%=      5-min Rain = 0
KLA1 090959Z 01000KT 00/00 A303 RMK A01 T00010001  RH  100%=      5-min Rain = 0
KLA1 091000Z 01000KT M00/M00 A303 RMK A01 T10011001  RH  100%=      5-min Rain = 0
KLA1 091001Z 20000KT M00/M00 A303 RMK A01 T10021002  RH  100%=      5-min Rain = 0
KLA1 091002Z 20001KT M00/M00 A303 RMK A01 T10021002  RH  100%=      5-min Rain = 0
KLA1 091003Z 19001KT M00/M00 A303 RMK A01 T10031003  RH  100%=      5-min Rain = 0
KLA1 091004Z 19001KT M00/M00 A303 RMK A01 T10021002  RH  100%=      5-min Rain = 0
KLA1 091005Z 20001KT M00/M00 A3031 RMK A01 T10021002  RH  100%=      5-min Rain = 0
KLA1 091006Z 20001KT M00/M00 A3031 RMK A01 T10021002  RH  100%=      5-min Rain = 0
KLA1 091007Z 22001KT M00/M00 A3031 RMK A01 T10011002  RH  100%=      5-min Rain = 0
KLA1 091008Z 25002KT M00/M00 A3031 RMK A01 T10011002  RH  100%=      5-min Rain = 0
KLA1 091009Z 26002KT M00/M00 A3031 RMK A01 T10021002  RH  100%=      5-min Rain = 0
KLA1 091010Z 27002KT M00/M00 A3031 RMK A01 T10021003  RH  100%=      5-min Rain = 0
KLA1 091011Z 28002KT M00/M00 A3031 RMK A01 T10031003  RH  100%=      5-min Rain = 0
KLA1 091012Z 28003KT M00/M00 A3031 RMK A01 T10021002  RH  100%=      5-min Rain = 0
KLA1 091013Z 29002KT M00/M00 A3031 RMK A01 T10021002  RH  100%=      5-min Rain = 0
KLA1 091014Z 28003KT M00/M00 A3031 RMK A01 T10011001  RH  100%=      5-min Rain = 0
KLA1 091015Z 29003KT 00/00 A3031 RMK A01 T00-000-1  RH  100%=      5-min Rain = 0
KLA1 091016Z 29003KT 00/00 A3031 RMK A01 T00-000-0  RH  100%=      5-min Rain = 0
KLA1 091017Z 29003KT 00/00 A3031 RMK A01 T00000000  RH  100%=      5-min Rain = 0
KLA1 091018Z 30003KT 00/00 A3031 RMK A01 T00010001  RH  100%=      5-min Rain = 0
KLA1 091019Z 30003KT 00/00 A3031 RMK A01 T00010001  RH  100%=      5-min Rain = 0
KLA1 091020Z 29003KT 00/00 A3031 RMK A01 T00010001  RH  100%=      5-min Rain = 0
KLA1 091021Z 30002KT 00/00 A303 RMK A01 T00010001  RH  100%=      5-min Rain = 0
KLA1 091022Z 30002KT 00/00 A303 RMK A01 T00010001  RH  100%=      5-min Rain = 0
KLA1 091023Z 30002KT 00/00 A303 RMK A01 T00010001  RH  100%=      5-min Rain = 0
KLA1 091024Z 30003KT 00/00 A303 RMK A01 T00010001  RH  100%=      5-min Rain = 0
KLA1 091025Z 30003KT 00/00 A303 RMK A01 T00010001  RH  100%=      5-min Rain = 0
KLA1 091026Z 30003KT 00/00 A303 RMK A01 T00010001  RH  100%=      5-min Rain = 0
KLA1 091027Z 30003KT 00/00 A303 RMK A01 T00010001  RH  100%=      5-min Rain = 0
KLA1 091028Z 30002KT 00/00 A303 RMK A01 T00010001  RH  100%=      5-min Rain = 0
KLA1 091029Z 31002KT 00/00 A3031 RMK A01 T00010001  RH  100%=      5-min Rain = 0
KLA1 091030Z 31002KT 00/00 A3031 RMK A01 T00010001  RH  100%=      5-min Rain = 0
KLA1 091031Z 34002KT 00/00 A3031 RMK A01 T00010001  RH  100%=      5-min Rain = 0
KLA1 091032Z 33002KT 00/00 A3031 RMK A01 T000000-0  RH  100%=      5-min Rain = 0
KLA1 091033Z 33002KT 00/00 A3031 RMK A01 T000000-0  RH  100%=      5-min Rain = 0
KLA1 091034Z 36002KT 00/00 A3031 RMK A01 T00-000-0  RH  100%=      5-min Rain = 0
KLA1 091035Z 01002KT M00/M00 A3031 RMK A01 T10011001  RH  100%=      5-min Rain = 0
KLA1 091036Z 01002KT M00/M00 A3031 RMK A01 T10011001  RH  100%=      5-min Rain = 0
KLA1 091037Z 36002KT M00/M00 A3031 RMK A01 T10021002  RH  100%=      5-min Rain = 0
KLA1 091038Z 00002KT M00/M00 A3031 RMK A01 T10021002  RH  100%=      5-min Rain = 0
KLA1 091039Z 00002KT M00/M00 A303 RMK A01 T10031003  RH  100%=      5-min Rain = 0
KLA1 091040Z 00002KT M00/M00 A303 RMK A01 T10031003  RH  100%=      5-min Rain = 0
KLA1 091041Z 35002KT M00/M00 A303 RMK A01 T10041004  RH  100%=      5-min Rain = 0
KLA1 091042Z 34001KT M00/M00 A303 RMK A01 T10041004  RH  100%=      5-min Rain = 0
KLA1 091043Z 35001KT M00/M00 A303 RMK A01 T10041004  RH  100%=      5-min Rain = 0
KLA1 091044Z 00002KT M00/M00 A303 RMK A01 T10041004  RH  100%=      5-min Rain = 0
KLA1 091045Z 00002KT M00/M00 A303 RMK A01 T10031004  RH  100%=      5-min Rain = 0
KLA1 091046Z 36002KT M00/M00 A303 RMK A01 T10031004  RH  100%=      5-min Rain = 0
KLA1 091047Z 35001KT M00/M00 A303 RMK A01 T10031003  RH  100%=      5-min Rain = 0
KLA1 091048Z 34001KT M00/M00 A303 RMK A01 T10031003  RH  100%=      5-min Rain = 0
KLA1 091049Z 33001KT M00/M00 A303 RMK A01 T10021002  RH  100%=      5-min Rain = 0
KLA1 091050Z 33001KT M00/M00 A303 RMK A01 T10011001  RH  100%=      5-min Rain = 0
KLA1 091051Z 32000KT M00/M00 A303 RMK A01 T10011001  RH  100%=      5-min Rain = 0
KLA1 091052Z 28001KT 00/00 A303 RMK A01 T00-000-1  RH  100%=      5-min Rain = 0
KLA1 091053Z 27001KT M00/M00 A3031 RMK A01 T10011001  RH  100%=      5-min Rain = 0
KLA1 091054Z 26002KT M00/M00 A3031 RMK A01 T10011001  RH  100%=      5-min Rain = 0
KLA1 091055Z 26002KT M00/M00 A303 RMK A01 T10011001  RH  100%=      5-min Rain = 0
KLA1 091056Z 26002KT M00/M00 A303 RMK A01 T10021002  RH  100%=      5-min Rain = 0
KLA1 091057Z 27001KT M00/M00 A303 RMK A01 T10021003  RH  100%=      5-min Rain = 0
KLA1 091058Z 26001KT M00/M00 A303 RMK A01 T10031003  RH  100%=      5-min Rain = 0
KLA1 091059Z 26001KT M00/M00 A3031 RMK A01 T10031003  RH  100%=      5-min Rain = 0
KLA1 091100Z 26001KT M00/M00 A3031 RMK A01 T10031003  RH  100%=      5-min Rain = 0
KLA1 091101Z 27001KT M00/M00 A3031 RMK A01 T10041004  RH  100%=      5-min Rain = 0
KLA1 091102Z 27001KT M00/M00 A3031 RMK A01 T10041004  RH  100%=      5-min Rain = 0
KLA1 091103Z 27001KT M00/M01 A3031 RMK A01 T10041005  RH  100%=      5-min Rain = 0
KLA1 091104Z 27001KT M01/M01 A3031 RMK A01 T10051005  RH  100%=      5-min Rain = 0
KLA1 091105Z 28000KT M01/M01 A3031 RMK A01 T10061006  RH  100%=      5-min Rain = 0
KLA1 091106Z 28000KT M01/M01 A3031 RMK A01 T10061006  RH  100%=      5-min Rain = 0
KLA1 091107Z 27001KT M01/M01 A3031 RMK A01 T10071007  RH  100%=      5-min Rain = 0
KLA1 091108Z 27001KT M01/M01 A3031 RMK A01 T10081008  RH  100%=      5-min Rain = 0
KLA1 091109Z 27001KT M01/M01 A3031 RMK A01 T10091009  RH  100%=      5-min Rain = 0
KLA1 091110Z 27001KT M01/M01 A3031 RMK A01 T10091009  RH  100%=      5-min Rain = 0
KLA1 091111Z 27000KT M01/M01 A3031 RMK A01 T10091009  RH  100%=      5-min Rain = 0
KLA1 091112Z 27001KT M01/M01 A3031 RMK A01 T10091009  RH  100%=      5-min Rain = 0
KLA1 091113Z 28001KT M01/M01 A3031 RMK A01 T10091009  RH  100%=      5-min Rain = 0
KLA1 091114Z 28000KT M01/M01 A3031 RMK A01 T10091010  RH  100%=      5-min Rain = 0
KLA1 091115Z 00000KT M01/M01 A3031 RMK A01 T10101010  RH  100%=      5-min Rain = 0
KLA1 091116Z 00000KT M01/M01 A3031 RMK A01 T10101011  RH  100%=      5-min Rain = 0
KLA1 091117Z 00000KT M01/M01 A3031 RMK A01 T10111011  RH  100%=      5-min Rain = 0
KLA1 091118Z 28000KT M01/M01 A3031 RMK A01 T10111011  RH  100%=      5-min Rain = 0
KLA1 091119Z 00000KT M01/M01 A3031 RMK A01 T10101010  RH  100%=      5-min Rain = 0
KLA1 091120Z 30000KT M01/M01 A3031 RMK A01 T10101010  RH  100%=      5-min Rain = 0
KLA1 091121Z 30000KT M01/M01 A3031 RMK A01 T10101010  RH  100%=      5-min Rain = 0
KLA1 091122Z 28000KT M01/M01 A3031 RMK A01 T10101010  RH  100%=      5-min Rain = 0
KLA1 091123Z 27001KT M01/M01 A3031 RMK A01 T10101010  RH  100%=      5-min Rain = 0
KLA1 091124Z 27002KT M01/M01 A3031 RMK A01 T10111011  RH  100%=      5-min Rain = 0
KLA1 091125Z 27002KT M01/M01 A3031 RMK A01 T10121012  RH  100%=      5-min Rain = 0
KLA1 091126Z 27002KT M01/M01 A3031 RMK A01 T10131014  RH  100%=      5-min Rain = 0
KLA1 091127Z 27002KT M02/M02 A3031 RMK A01 T10151015  RH  100%=      5-min Rain = 0
KLA1 091128Z 27002KT M02/M02 A3031 RMK A01 T10151015  RH  100%=      5-min Rain = 0
KLA1 091129Z 27002KT M02/M02 A3031 RMK A01 T10161016  RH  100%=      5-min Rain = 0
KLA1 091130Z 27002KT M02/M02 A3031 RMK A01 T10161016  RH  100%=      5-min Rain = 0
KLA1 091131Z 27002KT M02/M02 A3031 RMK A01 T10171017  RH  100%=      5-min Rain = 0
KLA1 091132Z 27002KT M02/M02 A3031 RMK A01 T10171017  RH  100%=      5-min Rain = 0
KLA1 091133Z 27002KT M02/M02 A3031 RMK A01 T10171017  RH  100%=      5-min Rain = 0
KLA1 091134Z 27002KT M02/M02 A3031 RMK A01 T10171017  RH  100%=      5-min Rain = 0
KLA1 091135Z 27002KT M02/M02 A3031 RMK A01 T10171017  RH  100%=      5-min Rain = 0
KLA1 091136Z 27002KT M02/M02 A3031 RMK A01 T10171017  RH  100%=      5-min Rain = 0
KLA1 091137Z 28002KT M02/M02 A3031 RMK A01 T10161016  RH  100%=      5-min Rain = 0
KLA1 091138Z 28002KT M02/M02 A3031 RMK A01 T10161016  RH  100%=      5-min Rain = 0
KLA1 091139Z 28001KT M02/M02 A3031 RMK A01 T10161016  RH  100%=      5-min Rain = 0
KLA1 091140Z 28001KT M02/M02 A3031 RMK A01 T10161017  RH  100%=      5-min Rain = 0
KLA1 091141Z 28001KT M02/M02 A3031 RMK A01 T10161016  RH  100%=      5-min Rain = 0
KLA1 091142Z 28000KT M02/M02 A3031 RMK A01 T10161016  RH  100%=      5-min Rain = 0
KLA1 091143Z 00000KT M02/M02 A3031 RMK A01 T10161016  RH  100%=      5-min Rain = 0
KLA1 091144Z 00000KT M02/M02 A3031 RMK A01 T10161016  RH  100%=      5-min Rain = 0
KLA1 091145Z 00000KT M02/M02 A3031 RMK A01 T10161016  RH  100%=      5-min Rain = 0
KLA1 091146Z 00000KT M02/M02 A3031 RMK A01 T10161017  RH  100%=      5-min Rain = 0
KLA1 091147Z 00000KT M02/M02 A3031 RMK A01 T10171017  RH  100%=      5-min Rain = 0
KLA1 091148Z 00000KT M02/M02 A3031 RMK A01 T10171018  RH  100%=      5-min Rain = 0
KLA1 091149Z 01001KT M02/M02 A3031 RMK A01 T10181018  RH  100%=      5-min Rain = 0
KLA1 091150Z 02000KT M02/M02 A3031 RMK A01 T10191019  RH  100%=      5-min Rain = 0
KLA1 091151Z 02001KT M02/M02 A3031 RMK A01 T10191019  RH  100%=      5-min Rain = 0
KLA1 091152Z 02001KT M02/M02 A3031 RMK A01 T10191019  RH  100%=      5-min Rain = 0
KLA1 091153Z 02001KT M02/M02 A3031 RMK A01 T10191019  RH  100%=      5-min Rain = 0
KLA1 091154Z 02001KT M02/M02 A3031 RMK A01 T10191019  RH  100%=      5-min Rain = 0
KLA1 091155Z 02000KT M02/M02 A3031 RMK A01 T10191019  RH  100%=      5-min Rain = 0
KLA1 091156Z 01000KT M02/M02 A3031 RMK A01 T10191019  RH  100%=      5-min Rain = 0
KLA1 091157Z 01000KT M02/M02 A3031 RMK A01 T10191019  RH  100%=      5-min Rain = 0
KLA1 091158Z 00000KT M02/M02 A3031 RMK A01 T10191019  RH  100%=      5-min Rain = 0
KLA1 091159Z 00000KT M02/M02 A3031 RMK A01 T10191019  RH  100%=      5-min Rain = 0
KLA1 091200Z 31000KT M02/M02 A3031 RMK A01 T10191019  RH  100%=      5-min Rain = 0
KLA1 091201Z 29000KT M02/M02 A3031 RMK A01 T10191019  RH  100%=      5-min Rain = 0
KLA1 091202Z 28001KT M02/M02 A3031 RMK A01 T10181019  RH  100%=      5-min Rain = 0
KLA1 091203Z 28000KT M02/M02 A3031 RMK A01 T10181018  RH  100%=      5-min Rain = 0
KLA1 091204Z 28000KT M02/M02 A3031 RMK A01 T10171018  RH  100%=      5-min Rain = 0
KLA1 091205Z 28001KT M02/M02 A3031 RMK A01 T10171017  RH  100%=      5-min Rain = 0
KLA1 091206Z 30001KT M02/M02 A3031 RMK A01 T10161017  RH  100%=      5-min Rain = 0
KLA1 091207Z 31001KT M02/M02 A3031 RMK A01 T10161016  RH  100%=      5-min Rain = 0
KLA1 091208Z 32001KT M02/M02 A3031 RMK A01 T10161016  RH  100%=      5-min Rain = 0
KLA1 091209Z 32002KT M02/M02 A3031 RMK A01 T10161016  RH  100%=      5-min Rain = 0
KLA1 091210Z 32001KT M02/M02 A3031 RMK A01 T10161016  RH  100%=      5-min Rain = 0
KLA1 091211Z 32001KT M02/M02 A3031 RMK A01 T10161016  RH  100%=      5-min Rain = 0
KLA1 091212Z 32001KT M02/M02 A3031 RMK A01 T10151015  RH  100%=      5-min Rain = 0
KLA1 091213Z 30001KT M02/M02 A3031 RMK A01 T10151015  RH  100%=      5-min Rain = 0
KLA1 091214Z 30000KT M01/M01 A3031 RMK A01 T10141014  RH  100%=      5-min Rain = 0
KLA1 091215Z 30000KT M01/M01 A3031 RMK A01 T10141014  RH  100%=      5-min Rain = 0
KLA1 091216Z 00000KT M01/M01 A3032 RMK A01 T10141014  RH  100%=      5-min Rain = 0
KLA1 091217Z 00000KT M01/M01 A3031 RMK A01 T10141014  RH  100%=      5-min Rain = 0
KLA1 091218Z 00000KT M01/M01 A3032 RMK A01 T10141014  RH  100%=      5-min Rain = 0
KLA1 091219Z 00000KT M01/M01 A3032 RMK A01 T10141014  RH  100%=      5-min Rain = 0
KLA1 091220Z 25000KT M01/M01 A3032 RMK A01 T10141014  RH  100%=      5-min Rain = 0
KLA1 091221Z 24000KT M01/M01 A3032 RMK A01 T10141014  RH  100%=      5-min Rain = 0
KLA1 091222Z 25001KT M01/M01 A3032 RMK A01 T10141014  RH  100%=      5-min Rain = 0
KLA1 091223Z 26002KT M01/M01 A3032 RMK A01 T10141014  RH  100%=      5-min Rain = 0
KLA1 091224Z 26002KT M01/M01 A3032 RMK A01 T10141014  RH  100%=      5-min Rain = 0
KLA1 091225Z 26002KT M02/M02 A3032 RMK A01 T10151015  RH  100%=      5-min Rain = 0
KLA1 091226Z 27002KT M02/M02 A3032 RMK A01 T10161016  RH  100%=      5-min Rain = 0
KLA1 091227Z 28003KT M02/M02 A3032 RMK A01 T10161016  RH  100%=      5-min Rain = 0
KLA1 091228Z 29003KT M02/M02 A3032 RMK A01 T10161016  RH  100%=      5-min Rain = 0
KLA1 091229Z 29003KT M02/M02 A3032 RMK A01 T10171017  RH  100%=      5-min Rain = 0
KLA1 091230Z 30003KT M02/M02 A3032 RMK A01 T10171017  RH  100%=      5-min Rain = 0
KLA1 091231Z 32003KT M02/M02 A3032 RMK A01 T10171017  RH  100%=      5-min Rain = 0
KLA1 091232Z 31003KT M02/M02 A3032 RMK A01 T10171017  RH  100%=      5-min Rain = 0
KLA1 091233Z 31003KT M02/M02 A3032 RMK A01 T10151015  RH  100%=      5-min Rain = 0
KLA1 091234Z 30002KT M01/M01 A3033 RMK A01 T10141014  RH  100%=      5-min Rain = 0
KLA1 091235Z 31002KT M01/M01 A3033 RMK A01 T10141014  RH  100%=      5-min Rain = 0
KLA1 091236Z 30002KT M02/M02 A3033 RMK A01 T10151015  RH  100%=      5-min Rain = 0
KLA1 091237Z 29002KT M02/M02 A3033 RMK A01 T10151015  RH  100%=      5-min Rain = 0
KLA1 091238Z 29003KT M02/M02 A3033 RMK A01 T10151015  RH  100%=      5-min Rain = 0
KLA1 091239Z 29003KT M01/M01 A3033 RMK A01 T10141014  RH  100%=      5-min Rain = 0
KLA1 091240Z 29003KT M01/M01 A3033 RMK A01 T10141014  RH  100%=      5-min Rain = 0
KLA1 091241Z 29003KT M01/M01 A3033 RMK A01 T10131013  RH  100%=      5-min Rain = 0
KLA1 091242Z 29003KT M01/M01 A3033 RMK A01 T10131013  RH  100%=      5-min Rain = 0
KLA1 091243Z 29003KT M01/M01 A3033 RMK A01 T10131013  RH  100%=      5-min Rain = 0
KLA1 091244Z 30004KT M01/M01 A3033 RMK A01 T10131013  RH  100%=      5-min Rain = 0
KLA1 091245Z 29004KT M01/M01 A3033 RMK A01 T10121012  RH  100%=      5-min Rain = 0
KLA1 091246Z 29003KT M01/M01 A3033 RMK A01 T10111011  RH  100%=      5-min Rain = 0
KLA1 091247Z 30003KT M01/M01 A3033 RMK A01 T10101010  RH  100%=      5-min Rain = 0
KLA1 091248Z 30002KT M01/M01 A3033 RMK A01 T10101010  RH  100%=      5-min Rain = 0
KLA1 091249Z 30002KT M01/M01 A3033 RMK A01 T10101010  RH  100%=      5-min Rain = 0
KLA1 091250Z 29002KT M01/M01 A3033 RMK A01 T10101010  RH  100%=      5-min Rain = 0
KLA1 091251Z 28001KT M01/M01 A3033 RMK A01 T10101010  RH  100%=      5-min Rain = 0
KLA1 091252Z 29002KT M01/M01 A3034 RMK A01 T10111011  RH  100%=      5-min Rain = 0
KLA1 091253Z 29002KT M01/M01 A3034 RMK A01 T10121012  RH  100%=      5-min Rain = 0
KLA1 091254Z 29003KT M01/M01 A3034 RMK A01 T10121013  RH  100%=      5-min Rain = 0
KLA1 091255Z 29003KT M01/M01 A3034 RMK A01 T10131013  RH  100%=      5-min Rain = 0
KLA1 091256Z 30003KT M01/M01 A3034 RMK A01 T10131013  RH  100%=      5-min Rain = 0
KLA1 091257Z 30003KT M01/M01 A3034 RMK A01 T10131013  RH  100%=      5-min Rain = 0
KLA1 091258Z 30003KT M01/M01 A3034 RMK A01 T10121012  RH  100%=      5-min Rain = 0
KLA1 091259Z 30003KT M01/M01 A3034 RMK A01 T10121012  RH  100%=      5-min Rain = 0
KLA1 091300Z 30003KT M01/M01 A3034 RMK A01 T10111011  RH  100%=      5-min Rain = 0
KLA1 091301Z 30003KT M01/M01 A3034 RMK A01 T10111011  RH  100%=      5-min Rain = 0
KLA1 091302Z 31003KT M01/M01 A3034 RMK A01 T10111011  RH  100%=      5-min Rain = 0
KLA1 091303Z 30002KT M01/M01 A3034 RMK A01 T10111011  RH  100%=      5-min Rain = 0
KLA1 091304Z 31002KT M01/M01 A3034 RMK A01 T10111011  RH  100%=      5-min Rain = 0
KLA1 091305Z 30002KT M01/M01 A3034 RMK A01 T10111011  RH  100%=      5-min Rain = 0
KLA1 091306Z 30002KT M01/M01 A3034 RMK A01 T10111011  RH  100%=      5-min Rain = 0
KLA1 091307Z 30002KT M01/M01 A3034 RMK A01 T10101010  RH  100%=      5-min Rain = 0
KLA1 091308Z 31002KT M01/M01 A3034 RMK A01 T10101010  RH  100%=      5-min Rain = 0
KLA1 091309Z 30002KT M01/M01 A3034 RMK A01 T10101011  RH  100%=      5-min Rain = 0
KLA1 091310Z 30002KT M01/M01 A3034 RMK A01 T10101010  RH  100%=      5-min Rain = 0
KLA1 091311Z 30002KT M01/M01 A3034 RMK A01 T10101010  RH  100%=      5-min Rain = 0
KLA1 091312Z 29003KT M01/M01 A3034 RMK A01 T10101010  RH  100%=      5-min Rain = 0
KLA1 091313Z 29003KT M01/M01 A3034 RMK A01 T10101010  RH  100%=      5-min Rain = 0
KLA1 091314Z 28003KT M01/M01 A3035 RMK A01 T10101010  RH  100%=      5-min Rain = 0
KLA1 091315Z 28003KT M01/M01 A3035 RMK A01 T10101010  RH  100%=      5-min Rain = 0
KLA1 091316Z 29003KT M01/M01 A3035 RMK A01 T10101010  RH  100%=      5-min Rain = 0
KLA1 091317Z 29004KT M01/M01 A3035 RMK A01 T10101010  RH  100%=      5-min Rain = 0
KLA1 091318Z 29004KT M01/M01 A3035 RMK A01 T10101010  RH  100%=      5-min Rain = 0
KLA1 091319Z 29004KT M01/M01 A3035 RMK A01 T10101010  RH  100%=      5-min Rain = 0
KLA1 091320Z 29004KT M01/M01 A3035 RMK A01 T10101010  RH  100%=      5-min Rain = 0
KLA1 091321Z 29004KT M01/M01 A3035 RMK A01 T10101010  RH  100%=      5-min Rain = 0
KLA1 091322Z 29004KT M01/M01 A3035 RMK A01 T10101010  RH  100%=      5-min Rain = 0
KLA1 091323Z 30004KT M01/M01 A3035 RMK A01 T10101010  RH  100%=      5-min Rain = 0
KLA1 091324Z 30004KT M01/M01 A3035 RMK A01 T10101010  RH  100%=      5-min Rain = 0
KLA1 091325Z 30004KT M01/M01 A3035 RMK A01 T10101010  RH  100%=      5-min Rain = 0
KLA1 091326Z 29004KT M01/M01 A3035 RMK A01 T10101010  RH  100%=      5-min Rain = 0
KLA1 091327Z 29004KT M01/M01 A3035 RMK A01 T10101010  RH  100%=      5-min Rain = 0
KLA1 091328Z 29004KT M01/M01 A3035 RMK A01 T10101010  RH  100%=      5-min Rain = 0
KLA1 091329Z 29004KT M01/M01 A3036 RMK A01 T10101010  RH  100%=      5-min Rain = 0
KLA1 091330Z 29004KT M01/M01 A3036 RMK A01 T10101010  RH  100%=      5-min Rain = 0
KLA1 091331Z 29004KT M01/M01 A3036 RMK A01 T10101010  RH  100%=      5-min Rain = 0
KLA1 091332Z 30004KT M01/M01 A3036 RMK A01 T10101010  RH  100%=      5-min Rain = 0
KLA1 091333Z 30004KT M01/M01 A3036 RMK A01 T10101010  RH  100%=      5-min Rain = 0
KLA1 091334Z 30004KT M01/M01 A3036 RMK A01 T10101010  RH  100%=      5-min Rain = 0
KLA1 091335Z 29004KT M01/M01 A3036 RMK A01 T10101010  RH  100%=      5-min Rain = 0
KLA1 091336Z 29004KT M01/M01 A3036 RMK A01 T10101010  RH  100%=      5-min Rain = 0
KLA1 091337Z 30004KT M01/M01 A3036 RMK A01 T10101010  RH  100%=      5-min Rain = 0
KLA1 091338Z 30004KT M01/M01 A3036 RMK A01 T10101010  RH  100%=      5-min Rain = 0
KLA1 091339Z 28004KT M01/M01 A3036 RMK A01 T10091009  RH  100%=      5-min Rain = 0
KLA1 091340Z 29003KT M01/M01 A3036 RMK A01 T10091009  RH  100%=      5-min Rain = 0
KLA1 091341Z 30003KT M01/M01 A3036 RMK A01 T10091009  RH  100%=      5-min Rain = 0
KLA1 091342Z 29004KT M01/M01 A3036 RMK A01 T10091009  RH  100%=      5-min Rain = 0
KLA1 091343Z 29003KT M01/M01 A3036 RMK A01 T10091009  RH  100%=      5-min Rain = 0
KLA1 091344Z 29004KT M01/M01 A3036 RMK A01 T10091009  RH  100%=      5-min Rain = 0
KLA1 091345Z 30003KT M01/M01 A3036 RMK A01 T10081008  RH  100%=      5-min Rain = 0
KLA1 091346Z 31003KT M01/M01 A3036 RMK A01 T10081008  RH  100%=      5-min Rain = 0
KLA1 091347Z 31002KT M01/M01 A3036 RMK A01 T10081008  RH  100%=      5-min Rain = 0
KLA1 091348Z 31003KT M01/M01 A3036 RMK A01 T10091009  RH  100%=      5-min Rain = 0
KLA1 091349Z 31002KT M01/M01 A3036 RMK A01 T10091010  RH  100%=      5-min Rain = 0
KLA1 091350Z 30002KT M01/M01 A3036 RMK A01 T10101010  RH  100%=      5-min Rain = 0
KLA1 091351Z 30003KT M01/M01 A3036 RMK A01 T10101010  RH  100%=      5-min Rain = 0
KLA1 091352Z 29003KT M01/M01 A3036 RMK A01 T10101010  RH  100%=      5-min Rain = 0
KLA1 091353Z 30003KT M01/M01 A3036 RMK A01 T10091009  RH  100%=      5-min Rain = 0
KLA1 091354Z 30003KT M01/M01 A3036 RMK A01 T10081008  RH  100%=      5-min Rain = 0
KLA1 091355Z 30003KT M01/M01 A3036 RMK A01 T10071008  RH  100%=      5-min Rain = 0
KLA1 091356Z 30003KT M01/M01 A3036 RMK A01 T10071007  RH  100%=      5-min Rain = 0
KLA1 091357Z 31003KT M01/M01 A3036 RMK A01 T10061007  RH  100%=      5-min Rain = 0
KLA1 091358Z 31003KT M01/M01 A3036 RMK A01 T10061006  RH  100%=      5-min Rain = 0
KLA1 091359Z 33002KT M01/M01 A3036 RMK A01 T10051006  RH  100%=      5-min Rain = 0
KLA1 091400Z 35001KT M01/M01 A3036 RMK A01 T10071007  RH  100%=      5-min Rain = 0
KLA1 091401Z 33001KT M01/M01 A3036 RMK A01 T10091009  RH  100%=      5-min Rain = 0
KLA1 091402Z 32001KT M01/M01 A3036 RMK A01 T10091009  RH  100%=      5-min Rain = 0
KLA1 091403Z 31001KT M01/M01 A3036 RMK A01 T10091009  RH  100%=      5-min Rain = 0
KLA1 091404Z 32001KT M01/M01 A3036 RMK A01 T10091009  RH  100%=      5-min Rain = 0
KLA1 091405Z 31001KT M01/M01 A3036 RMK A01 T10071008  RH  100%=      5-min Rain = 0
KLA1 091406Z 30001KT M01/M01 A3036 RMK A01 T10061006  RH  100%=      5-min Rain = 0
KLA1 091407Z 30001KT M01/M01 A3036 RMK A01 T10051005  RH  100%=      5-min Rain = 0
KLA1 091408Z 34000KT M01/M01 A3037 RMK A01 T10051005  RH  100%=      5-min Rain = 0
KLA1 091409Z 34001KT M01/M01 A3037 RMK A01 T10051005  RH  100%=      5-min Rain = 0
KLA1 091410Z 36002KT M01/M01 A3037 RMK A01 T10051005  RH  100%=      5-min Rain = 0
KLA1 091411Z 32001KT M01/M01 A3037 RMK A01 T10051005  RH  100%=      5-min Rain = 0
KLA1 091412Z 31002KT M01/M01 A3037 RMK A01 T10051006  RH  100%=      5-min Rain = 0
KLA1 091413Z 30002KT M01/M01 A3037 RMK A01 T10061006  RH  100%=      5-min Rain = 0
KLA1 091414Z 30002KT M00/M00 A3037 RMK A01 T10041004  RH  100%=      5-min Rain = 0
KLA1 091415Z 30003KT M00/M00 A3037 RMK A01 T10031003  RH  100%=      5-min Rain = 0
KLA1 091416Z 31003KT M00/M00 A3037 RMK A01 T10021002  RH  100%=      5-min Rain = 0
KLA1 091417Z 31003KT M00/M00 A3037 RMK A01 T10021002  RH  100%=      5-min Rain = 0
KLA1 091418Z 31003KT M00/M00 A3037 RMK A01 T10021002  RH  100%=      5-min Rain = 0
KLA1 091419Z 30004KT M00/M00 A3037 RMK A01 T10011001  RH  100%=      5-min Rain = 0
KLA1 091420Z 30003KT M00/M00 A3037 RMK A01 T10011001  RH  100%=      5-min Rain = 0
KLA1 091421Z 30003KT 00/00 A3037 RMK A01 T00-000-0  RH  100%=      5-min Rain = 0
KLA1 091422Z 29003KT 00/00 A3037 RMK A01 T00-000-1  RH  100%=      5-min Rain = 0
KLA1 091423Z 29003KT 00/00 A3037 RMK A01 T00-000-1  RH  100%=      5-min Rain = 0
KLA1 091424Z 28003KT M00/M00 A3037 RMK A01 T10011001  RH  100%=      5-min Rain = 0
KLA1 091425Z 28003KT 00/00 A3038 RMK A01 T00-000-0  RH  100%=      5-min Rain = 0
KLA1 091426Z 28003KT 00/00 A3038 RMK A01 T00-000-1  RH  100%=      5-min Rain = 0
KLA1 091427Z 29003KT 00/00 A3038 RMK A01 T00-000-0  RH  100%=      5-min Rain = 0
KLA1 091428Z 30003KT 00/00 A3038 RMK A01 T00-000-0  RH  100%=      5-min Rain = 0
KLA1 091429Z 30003KT 00/00 A3038 RMK A01 T000000-0  RH  100%=      5-min Rain = 0
KLA1 091430Z 30003KT 00/00 A3038 RMK A01 T000000-0  RH  100%=      5-min Rain = 0
KLA1 091431Z 30003KT 00/00 A3038 RMK A01 T00010001  RH  100%=      5-min Rain = 0
KLA1 091432Z 30003KT 00/00 A3038 RMK A01 T00010001  RH  100%=      5-min Rain = 0
KLA1 091433Z 30003KT 00/00 A3038 RMK A01 T00010001  RH  100%=      5-min Rain = 0
KLA1 091434Z 30003KT 00/00 A3038 RMK A01 T00020002  RH  100%=      5-min Rain = 0
KLA1 091435Z 30003KT 00/00 A3038 RMK A01 T00030003  RH  100%=      5-min Rain = 0
KLA1 091436Z 30003KT 00/00 A3038 RMK A01 T00030003  RH  100%=      5-min Rain = 0
KLA1 091437Z 30003KT 00/00 A3038 RMK A01 T00040003  RH  100%=      5-min Rain = 0
KLA1 091438Z 30004KT 00/00 A3038 RMK A01 T00040004  RH  100%=      5-min Rain = 0
KLA1 091439Z 29004KT 01/01 A3038 RMK A01 T00050005  RH  100%=      5-min Rain = 0
KLA1 091440Z 29004KT 01/01 A3038 RMK A01 T00050005  RH  100%=      5-min Rain = 0
KLA1 091441Z 30004KT 01/01 A3038 RMK A01 T00050005  RH  100%=      5-min Rain = 0
KLA1 091442Z 30004KT 01/01 A3038 RMK A01 T00050005  RH  100%=      5-min Rain = 0
KLA1 091443Z 29003KT 01/01 A3038 RMK A01 T00060006  RH  100%=      5-min Rain = 0
KLA1 091444Z 28003KT 01/01 A3038 RMK A01 T00070006  RH  100%=      5-min Rain = 0
KLA1 091445Z 28004KT 01/01 A3038 RMK A01 T00070007  RH  100%=      5-min Rain = 0
KLA1 091446Z 29004KT 01/01 A3038 RMK A01 T00070007  RH  100%=      5-min Rain = 0
KLA1 091447Z 28003KT 01/01 A3038 RMK A01 T00080008  RH  100%=      5-min Rain = 0
KLA1 091448Z 30004KT 01/01 A3039 RMK A01 T00080008  RH  100%=      5-min Rain = 0
KLA1 091449Z 28003KT 01/01 A3039 RMK A01 T00080008  RH  100%=      5-min Rain = 0
KLA1 091450Z 28004KT 01/01 A3039 RMK A01 T00080008  RH  100%=      5-min Rain = 0
KLA1 091451Z 28004KT 01/01 A3039 RMK A01 T00080008  RH  100%=      5-min Rain = 0
KLA1 091452Z 29004KT 01/01 A3039 RMK A01 T00080008  RH  100%=      5-min Rain = 0
KLA1 091453Z 29003KT 01/01 A3039 RMK A01 T00080008  RH  100%=      5-min Rain = 0
KLA1 091454Z 29003KT 01/01 A3039 RMK A01 T00080008  RH  100%=      5-min Rain = 0
KLA1 091455Z 28003KT 01/01 A3039 RMK A01 T00080008  RH  100%=      5-min Rain = 0
KLA1 091456Z 29003KT 01/01 A3039 RMK A01 T00090009  RH  100%=      5-min Rain = 0
KLA1 091457Z 28003KT 01/01 A3039 RMK A01 T00100010  RH  100%=      5-min Rain = 0
KLA1 091458Z 28003KT 01/01 A3039 RMK A01 T00110011  RH  100%=      5-min Rain = 0
KLA1 091459Z 28003KT 01/01 A3039 RMK A01 T00120012  RH  100%=      5-min Rain = 0
KLA1 091500Z 28003KT 01/01 A3039 RMK A01 T00120012  RH  100%=      5-min Rain = 0
KLA1 091501Z 27002KT 01/01 A3039 RMK A01 T00130013  RH  100%=      5-min Rain = 0.01
KLA1 091502Z 28003KT 01/01 A3039 RMK A01 T00140013  RH  100%=      5-min Rain = 0
KLA1 091503Z 28003KT 01/01 A3039 RMK A01 T00140014  RH  100%=      5-min Rain = 0
KLA1 091504Z 28003KT 02/02 A3039 RMK A01 T00150015  RH  100%=      5-min Rain = 0
KLA1 091505Z 29004KT 02/02 A3039 RMK A01 T00150015  RH  100%=      5-min Rain = 0
KLA1 091506Z 28004KT 02/02 A3039 RMK A01 T00150015  RH  100%=      5-min Rain = 0
KLA1 091507Z 28004KT 02/02 A3039 RMK A01 T00150015  RH  100%=      5-min Rain = 0
KLA1 091508Z 28004KT 02/02 A3039 RMK A01 T00160016  RH  100%=      5-min Rain = 0
KLA1 091509Z 29004KT 02/02 A3039 RMK A01 T00160016  RH  100%=      5-min Rain = 0
KLA1 091510Z 28003KT 02/02 A3039 RMK A01 T00170017  RH  100%=      5-min Rain = 0
KLA1 091511Z 28004KT 02/02 A304 RMK A01 T00180017  RH  100%=      5-min Rain = 0
KLA1 091512Z 29004KT 02/02 A304 RMK A01 T00190018  RH  099%=      5-min Rain = 0
KLA1 091513Z 28003KT 02/02 A304 RMK A01 T00190019  RH  099%=      5-min Rain = 0
KLA1 091514Z 27003KT 02/02 A304 RMK A01 T00200018  RH  099%=      5-min Rain = 0
KLA1 091515Z 28003KT 02/02 A304 RMK A01 T00200018  RH  099%=      5-min Rain = 0
KLA1 091516Z 29004KT 02/02 A304 RMK A01 T00200018  RH  098%=      5-min Rain = 0
KLA1 091517Z 28003KT 02/02 A304 RMK A01 T00210018  RH  098%=      5-min Rain = 0
KLA1 091518Z 28004KT 02/02 A304 RMK A01 T00210019  RH  098%=      5-min Rain = 0
KLA1 091519Z 28004KT 02/02 A304 RMK A01 T00220019  RH  098%=      5-min Rain = 0
KLA1 091520Z 29005KT 02/02 A304 RMK A01 T00230019  RH  097%=      5-min Rain = 0
KLA1 091521Z 27004KT 02/02 A304 RMK A01 T00230019  RH  097%=      5-min Rain = 0
KLA1 091522Z 29005KT 03/02 A304 RMK A01 T00250020  RH  097%=      5-min Rain = 0
KLA1 091523Z 29005KT 03/02 A304 RMK A01 T00250020  RH  096%=      5-min Rain = 0
KLA1 091524Z 29005KT 03/02 A304 RMK A01 T00250019  RH  096%=      5-min Rain = 0
KLA1 091525Z 29004KT 03/02 A304 RMK A01 T00260019  RH  095%=      5-min Rain = 0
KLA1 091526Z 29005KT 03/02 A304 RMK A01 T00260019  RH  095%=      5-min Rain = 0
KLA1 091527Z 29006KT 03/02 A304 RMK A01 T00280021  RH  095%=      5-min Rain = 0
KLA1 091528Z 30005KT 03/02 A304 RMK A01 T00290021  RH  095%=      5-min Rain = 0
KLA1 091529Z 29004KT 03/02 A304 RMK A01 T00300021  RH  094%=      5-min Rain = 0
KLA1 091530Z 30004KT 03/02 A304 RMK A01 T00300022  RH  094%=      5-min Rain = 0
KLA1 091531Z 31005KT 03/02 A304 RMK A01 T00320024  RH  094%=      5-min Rain = 0
KLA1 091532Z 30004KT 03/02 A304 RMK A01 T00330023  RH  093%=      5-min Rain = 0
KLA1 091533Z 31005KT 03/02 A304 RMK A01 T00330023  RH  093%=      5-min Rain = 0
KLA1 091534Z 31004KT 03/02 A304 RMK A01 T00340022  RH  092%=      5-min Rain = 0
KLA1 091535Z 31004KT 03/02 A304 RMK A01 T00340022  RH  092%=      5-min Rain = 0
KLA1 091536Z 32004KT 03/02 A304 RMK A01 T00340021  RH  092%=      5-min Rain = 0
KLA1 091537Z 33004KT 03/02 A304 RMK A01 T00340022  RH  092%=      5-min Rain = 0
KLA1 091538Z 34003KT 04/02 A304 RMK A01 T00360024  RH  092%=      5-min Rain = 0
KLA1 091539Z 33004KT 04/02 A304 RMK A01 T00380024  RH  091%=      5-min Rain = 0
KLA1 091540Z 32004KT 04/03 A304 RMK A01 T00400025  RH  090%=      5-min Rain = 0
KLA1 091541Z 31004KT 04/02 A304 RMK A01 T00400023  RH  089%=      5-min Rain = 0
KLA1 091542Z 35005KT 04/02 A304 RMK A01 T00410024  RH  088%=      5-min Rain = 0
KLA1 091543Z 33004KT 04/02 A3041 RMK A01 T00410021  RH  087%=      5-min Rain = 0
KLA1 091544Z 33004KT 04/02 A3041 RMK A01 T00420023  RH  088%=      5-min Rain = 0
KLA1 091545Z 32005KT 04/02 A3041 RMK A01 T00440024  RH  087%=      5-min Rain = 0
KLA1 091546Z 32005KT 04/02 A3041 RMK A01 T00440022  RH  086%=      5-min Rain = 0
KLA1 091547Z 31003KT 04/02 A3041 RMK A01 T00430020  RH  085%=      5-min Rain = 0
KLA1 091548Z 32002KT 04/02 A3041 RMK A01 T00420019  RH  085%=      5-min Rain = 0
KLA1 091549Z 32004KT 04/02 A3041 RMK A01 T00420021  RH  086%=      5-min Rain = 0
KLA1 091550Z 32003KT 04/02 A3041 RMK A01 T00440023  RH  087%=      5-min Rain = 0
KLA1 091551Z 32004KT 05/03 A3041 RMK A01 T00450026  RH  087%=      5-min Rain = 0
KLA1 091552Z 31005KT 05/03 A3041 RMK A01 T00460025  RH  086%=      5-min Rain = 0
KLA1 091553Z 31005KT 05/03 A3041 RMK A01 T00460025  RH  086%=      5-min Rain = 0
KLA1 091554Z 32006KT 05/02 A3041 RMK A01 T00470024  RH  085%=      5-min Rain = 0
KLA1 091555Z 34005KT 05/02 A3041 RMK A01 T00460023  RH  085%=      5-min Rain = 0
KLA1 091556Z 35005KT 05/02 A3041 RMK A01 T00470023  RH  084%=      5-min Rain = 0
KLA1 091557Z 31005KT 05/02 A3041 RMK A01 T00480024  RH  085%=      5-min Rain = 0
KLA1 091558Z 31005KT 05/02 A3041 RMK A01 T00480023  RH  084%=      5-min Rain = 0
KLA1 091559Z 30005KT 05/03 A3041 RMK A01 T00470025  RH  085%=      5-min Rain = 0
KLA1 091600Z 32004KT 05/02 A3041 RMK A01 T00460023  RH  085%=      5-min Rain = 0
KLA1 091601Z 31005KT 05/02 A3041 RMK A01 T00460024  RH  085%=      5-min Rain = 0
KLA1 091602Z 30003KT 05/02 A3041 RMK A01 T00450021  RH  084%=      5-min Rain = 0
KLA1 091603Z 28004KT 05/02 A3041 RMK A01 T00450021  RH  085%=      5-min Rain = 0
KLA1 091604Z 31005KT 05/02 A3041 RMK A01 T00450023  RH  086%=      5-min Rain = 0
KLA1 091605Z 31003KT 05/02 A3041 RMK A01 T00460024  RH  086%=      5-min Rain = 0
KLA1 091606Z 31004KT 05/03 A3041 RMK A01 T00480025  RH  085%=      5-min Rain = 0
KLA1 091607Z 35004KT 05/03 A3041 RMK A01 T00490025  RH  085%=      5-min Rain = 0
KLA1 091608Z 35004KT 05/02 A3042 RMK A01 T00500024  RH  083%=      5-min Rain = 0
KLA1 091609Z 00001KT 05/02 A3042 RMK A01 T00500021  RH  082%=      5-min Rain = 0
KLA1 091610Z 06001KT 05/02 A3042 RMK A01 T00510022  RH  081%=      5-min Rain = 0
KLA1 091611Z 05004KT 05/02 A3042 RMK A01 T00520016  RH  078%=      5-min Rain = 0
KLA1 091612Z 03003KT 05/02 A3042 RMK A01 T00520015  RH  077%=      5-min Rain = 0
KLA1 091613Z 36001KT 05/01 A3042 RMK A01 T00520012  RH  075%=      5-min Rain = 0
KLA1 091614Z 02002KT 05/01 A3042 RMK A01 T00510010  RH  074%=      5-min Rain = 0
KLA1 091615Z 03003KT 05/01 A3042 RMK A01 T00510012  RH  076%=      5-min Rain = 0
KLA1 091616Z 06004KT 05/02 A3042 RMK A01 T00530015  RH  077%=      5-min Rain = 0
KLA1 091617Z 03006KT 06/02 A3042 RMK A01 T00550018  RH  077%=      5-min Rain = 0
KLA1 091618Z 05002KT 06/01 A3042 RMK A01 T00550011  RH  073%=      5-min Rain = 0
KLA1 091619Z 05004KT 05/01 A3042 RMK A01 T00540009  RH  073%=      5-min Rain = 0
KLA1 091620Z 04004KT 05/01 A3042 RMK A01 T00540010  RH  074%=      5-min Rain = 0
KLA1 091621Z 04004KT 05/01 A3042 RMK A01 T00530010  RH  073%=      5-min Rain = 0
KLA1 091622Z 05004KT 05/01 A3042 RMK A01 T00530011  RH  074%=      5-min Rain = 0
KLA1 091623Z 04003KT 05/01 A3042 RMK A01 T00540011  RH  074%=      5-min Rain = 0
KLA1 091624Z 03002KT 06/01 A3042 RMK A01 T00550012  RH  074%=      5-min Rain = 0
KLA1 091625Z 05003KT 06/02 A3042 RMK A01 T00570016  RH  075%=      5-min Rain = 0
KLA1 091626Z 03005KT 06/02 A3042 RMK A01 T00580015  RH  074%=      5-min Rain = 0
KLA1 091627Z 04005KT 06/01 A3042 RMK A01 T00580013  RH  073%=      5-min Rain = 0
KLA1 091628Z 04004KT 06/01 A3042 RMK A01 T00570010  RH  072%=      5-min Rain = 0
KLA1 091629Z 03003KT 06/01 A3042 RMK A01 T00560011  RH  073%=      5-min Rain = 0
KLA1 091630Z 02003KT 06/01 A3042 RMK A01 T00550011  RH  073%=      5-min Rain = 0
KLA1 091631Z 00003KT 06/01 A3042 RMK A01 T00560012  RH  073%=      5-min Rain = 0
KLA1 091632Z 01004KT 06/01 A3042 RMK A01 T00560013  RH  073%=      5-min Rain = 0
KLA1 091633Z 01003KT 06/01 A3042 RMK A01 T00570013  RH  073%=      5-min Rain = 0
KLA1 091634Z 35002KT 06/01 A3042 RMK A01 T00570013  RH  073%=      5-min Rain = 0
KLA1 091635Z 35002KT 06/01 A3042 RMK A01 T00570013  RH  073%=      5-min Rain = 0
KLA1 091636Z 28000KT 06/01 A3042 RMK A01 T00570014  RH  074%=      5-min Rain = 0
KLA1 091637Z 04002KT 06/02 A3042 RMK A01 T00570015  RH  074%=      5-min Rain = 0
KLA1 091638Z 04002KT 06/01 A3042 RMK A01 T00580014  RH  074%=      5-min Rain = 0
KLA1 091639Z 06002KT 06/02 A3042 RMK A01 T00590015  RH  074%=      5-min Rain = 0
KLA1 091640Z 29001KT 06/02 A3042 RMK A01 T00600016  RH  074%=      5-min Rain = 0
KLA1 091641Z 23002KT 06/02 A3042 RMK A01 T00600018  RH  074%=      5-min Rain = 0
KLA1 091642Z 06003KT 06/02 A3042 RMK A01 T00590016  RH  074%=      5-min Rain = 0
KLA1 091643Z 33003KT 06/02 A3042 RMK A01 T00580017  RH  075%=      5-min Rain = 0
KLA1 091644Z 30003KT 06/02 A3042 RMK A01 T00600020  RH  076%=      5-min Rain = 0
KLA1 091645Z 30005KT 06/02 A3042 RMK A01 T00600021  RH  076%=      5-min Rain = 0
KLA1 091646Z 30005KT 06/02 A3042 RMK A01 T00600018  RH  075%=      5-min Rain = 0
KLA1 091647Z 31005KT 06/02 A3042 RMK A01 T00590020  RH  076%=      5-min Rain = 0
KLA1 091648Z 30005KT 06/02 A3042 RMK A01 T00590021  RH  076%=      5-min Rain = 0
KLA1 091649Z 31004KT 06/02 A3042 RMK A01 T00600021  RH  076%=      5-min Rain = 0
KLA1 091650Z 30005KT 06/02 A3042 RMK A01 T00600021  RH  076%=      5-min Rain = 0
KLA1 091651Z 32006KT 06/02 A3042 RMK A01 T00610022  RH  076%=      5-min Rain = 0
KLA1 091652Z 32003KT 06/02 A3042 RMK A01 T00610019  RH  074%=      5-min Rain = 0
KLA1 091653Z 29005KT 06/02 A3042 RMK A01 T00610020  RH  075%=      5-min Rain = 0
KLA1 091654Z 31005KT 06/02 A3042 RMK A01 T00600020  RH  075%=      5-min Rain = 0
KLA1 091655Z 32004KT 06/02 A3042 RMK A01 T00600021  RH  076%=      5-min Rain = 0
KLA1 091656Z 36003KT 06/02 A3042 RMK A01 T00620020  RH  075%=      5-min Rain = 0
KLA1 091657Z 31003KT 06/02 A3042 RMK A01 T00620018  RH  074%=      5-min Rain = 0
KLA1 091658Z 29004KT 06/02 A3042 RMK A01 T00620022  RH  076%=      5-min Rain = 0
KLA1 091659Z 27005KT 06/02 A3042 RMK A01 T00630023  RH  076%=      5-min Rain = 0
KLA1 091700Z 28005KT 06/02 A3042 RMK A01 T00630023  RH  075%=      5-min Rain = 0
KLA1 091701Z 28005KT 06/02 A3042 RMK A01 T00630022  RH  075%=      5-min Rain = 0
KLA1 091702Z 28004KT 06/02 A3042 RMK A01 T00630022  RH  075%=      5-min Rain = 0
KLA1 091703Z 28003KT 06/02 A3042 RMK A01 T00630020  RH  074%=      5-min Rain = 0
KLA1 091704Z 27003KT 06/02 A3042 RMK A01 T00620022  RH  075%=      5-min Rain = 0
KLA1 091705Z 27004KT 06/02 A3042 RMK A01 T00630021  RH  075%=      5-min Rain = 0
KLA1 091706Z 26003KT 06/02 A3041 RMK A01 T00630019  RH  073%=      5-min Rain = 0
KLA1 091707Z 28005KT 06/02 A3041 RMK A01 T00630021  RH  074%=      5-min Rain = 0
KLA1 091708Z 26004KT 06/02 A3041 RMK A01 T00630020  RH  074%=      5-min Rain = 0
KLA1 091709Z 27005KT 06/02 A3041 RMK A01 T00640020  RH  073%=      5-min Rain = 0
KLA1 091710Z 30005KT 06/02 A3041 RMK A01 T00640021  RH  074%=      5-min Rain = 0
KLA1 091711Z 30004KT 07/02 A3041 RMK A01 T00650021  RH  073%=      5-min Rain = 0
KLA1 091712Z 28004KT 07/02 A3041 RMK A01 T00660022  RH  074%=      5-min Rain = 0
KLA1 091713Z 27004KT 07/02 A3041 RMK A01 T00670021  RH  072%=      5-min Rain = 0
KLA1 091714Z 29006KT 07/02 A3041 RMK A01 T00670022  RH  073%=      5-min Rain = 0
KLA1 091715Z 28003KT 07/02 A3041 RMK A01 T00670019  RH  072%=      5-min Rain = 0
KLA1 091716Z 28000KT 07/02 A3041 RMK A01 T00670019  RH  071%=      5-min Rain = 0
KLA1 091717Z 30004KT 07/02 A3041 RMK A01 T00670021  RH  072%=      5-min Rain = 0
KLA1 091718Z 29003KT 07/02 A3041 RMK A01 T00680021  RH  072%=      5-min Rain = 0
KLA1 091719Z 27004KT 07/02 A3041 RMK A01 T00680019  RH  071%=      5-min Rain = 0
KLA1 091720Z 30003KT 07/02 A3041 RMK A01 T00690022  RH  072%=      5-min Rain = 0
KLA1 091721Z 28005KT 07/02 A3041 RMK A01 T00710024  RH  072%=      5-min Rain = 0
KLA1 091722Z 26002KT 07/02 A3041 RMK A01 T00720019  RH  069%=      5-min Rain = 0
KLA1 091723Z 27005KT 07/02 A3041 RMK A01 T00720020  RH  070%=      5-min Rain = 0
KLA1 091724Z 29006KT 07/02 A3041 RMK A01 T00710021  RH  071%=      5-min Rain = 0
KLA1 091725Z 33005KT 07/02 A3041 RMK A01 T00720023  RH  071%=      5-min Rain = 0
KLA1 091726Z 33004KT 08/02 A3041 RMK A01 T00750024  RH  070%=      5-min Rain = 0
KLA1 091727Z 00004KT 08/02 A3041 RMK A01 T00760020  RH  068%=      5-min Rain = 0
KLA1 091728Z 34005KT 08/02 A3041 RMK A01 T00760022  RH  068%=      5-min Rain = 0
KLA1 091729Z 31003KT 08/02 A3041 RMK A01 T00770024  RH  069%=      5-min Rain = 0
KLA1 091730Z 31003KT 08/03 A3041 RMK A01 T00800027  RH  069%=      5-min Rain = 0
KLA1 091731Z 31002KT 08/03 A3041 RMK A01 T00820027  RH  068%=      5-min Rain = 0
KLA1 091732Z 31006KT 08/02 A3041 RMK A01 T00830024  RH  067%=      5-min Rain = 0
KLA1 091733Z 31004KT 08/02 A3041 RMK A01 T00810020  RH  065%=      5-min Rain = 0
KLA1 091734Z 30004KT 08/02 A3041 RMK A01 T00800021  RH  066%=      5-min Rain = 0
KLA1 091735Z 31005KT 08/02 A3041 RMK A01 T00800021  RH  067%=      5-min Rain = 0
KLA1 091736Z 31004KT 08/02 A3041 RMK A01 T00790021  RH  067%=      5-min Rain = 0
KLA1 091737Z 30005KT 08/02 A304 RMK A01 T00790022  RH  067%=      5-min Rain = 0
KLA1 091738Z 31005KT 08/02 A3041 RMK A01 T00800020  RH  066%=      5-min Rain = 0
KLA1 091739Z 33001KT 08/02 A304 RMK A01 T00790019  RH  065%=      5-min Rain = 0
KLA1 091740Z 26001KT 08/02 A304 RMK A01 T00780016  RH  064%=      5-min Rain = 0
KLA1 091741Z 25003KT 08/02 A304 RMK A01 T00780018  RH  066%=      5-min Rain = 0
KLA1 091742Z 26003KT 08/02 A304 RMK A01 T00780018  RH  066%=      5-min Rain = 0
KLA1 091743Z 24003KT 08/02 A304 RMK A01 T00770016  RH  065%=      5-min Rain = 0
KLA1 091744Z 28003KT 08/02 A304 RMK A01 T00770017  RH  066%=      5-min Rain = 0
KLA1 091745Z 00003KT 08/02 A304 RMK A01 T00780019  RH  066%=      5-min Rain = 0
KLA1 091746Z 35006KT 08/02 A304 RMK A01 T00790017  RH  065%=      5-min Rain = 0
KLA1 091747Z 34005KT 08/02 A304 RMK A01 T00790016  RH  064%=      5-min Rain = 0
KLA1 091748Z 35007KT 08/02 A304 RMK A01 T00800018  RH  065%=      5-min Rain = 0
KLA1 091749Z 32005KT 08/02 A304 RMK A01 T00820017  RH  064%=      5-min Rain = 0
KLA1 091750Z 31004KT 08/02 A304 RMK A01 T00810017  RH  064%=      5-min Rain = 0
KLA1 091751Z 28004KT 08/02 A304 RMK A01 T00810017  RH  064%=      5-min Rain = 0
KLA1 091752Z 30004KT 08/02 A304 RMK A01 T00810015  RH  063%=      5-min Rain = 0
KLA1 091753Z 32001KT 08/02 A304 RMK A01 T00830021  RH  065%=      5-min Rain = 0
KLA1 091754Z 31003KT 09/03 A304 RMK A01 T00860025  RH  065%=      5-min Rain = 0
KLA1 091755Z 33004KT 09/02 A3039 RMK A01 T00880018  RH  061%=      5-min Rain = 0
KLA1 091756Z 29001KT 09/02 A3039 RMK A01 T00880015  RH  060%=      5-min Rain = 0
KLA1 091757Z 29001KT 09/02 A3039 RMK A01 T00880019  RH  062%=      5-min Rain = 0
KLA1 091758Z 34002KT 09/02 A3039 RMK A01 T00900018  RH  061%=      5-min Rain = 0
KLA1 091759Z 31004KT 09/02 A3039 RMK A01 T00920020  RH  061%=      5-min Rain = 0
KLA1 091800Z 31004KT 09/02 A3039 RMK A01 T00920017  RH  059%=      5-min Rain = 0
KLA1 091801Z 29003KT 09/02 A3039 RMK A01 T00910017  RH  060%=      5-min Rain = 0
KLA1 091802Z 27003KT 09/02 A3039 RMK A01 T00900020  RH  061%=      5-min Rain = 0
KLA1 091803Z 30005KT 09/02 A3039 RMK A01 T00900020  RH  061%=      5-min Rain = 0
KLA1 091804Z 29004KT 09/02 A3039 RMK A01 T00910018  RH  060%=      5-min Rain = 0
KLA1 091805Z 30004KT 09/01 A3039 RMK A01 T00910014  RH  059%=      5-min Rain = 0
KLA1 091806Z 33006KT 09/01 A3039 RMK A01 T00910014  RH  059%=      5-min Rain = 0
KLA1 091807Z 32005KT 09/01 A3039 RMK A01 T00910011  RH  057%=      5-min Rain = 0
KLA1 091808Z 32004KT 09/01 A3039 RMK A01 T00910014  RH  059%=      5-min Rain = 0
KLA1 091809Z 33005KT 09/01 A3039 RMK A01 T00920011  RH  057%=      5-min Rain = 0
KLA1 091810Z 00002KT 09/01 A3039 RMK A01 T00910010  RH  057%=      5-min Rain = 0
KLA1 091811Z 01004KT 09/01 A3038 RMK A01 T00910010  RH  057%=      5-min Rain = 0
KLA1 091812Z 03004KT 09/01 A3038 RMK A01 T00920006  RH  055%=      5-min Rain = 0
KLA1 091813Z 35004KT 09/01 A3038 RMK A01 T00920010  RH  056%=      5-min Rain = 0
KLA1 091814Z 33005KT 09/01 A3038 RMK A01 T00930012  RH  057%=      5-min Rain = 0
KLA1 091815Z 36006KT 09/01 A3038 RMK A01 T00940011  RH  056%=      5-min Rain = 0
KLA1 091816Z 35005KT 09/01 A3038 RMK A01 T00930013  RH  057%=      5-min Rain = 0
KLA1 091817Z 31006KT 09/02 A3038 RMK A01 T00940015  RH  058%=      5-min Rain = 0
KLA1 091818Z 32005KT 10/01 A3038 RMK A01 T00950012  RH  056%=      5-min Rain = 0
KLA1 091819Z 30005KT 10/01 A3038 RMK A01 T00970009  RH  054%=      5-min Rain = 0
KLA1 091820Z 30005KT 10/01 A3038 RMK A01 T00970006  RH  053%=      5-min Rain = 0
KLA1 091821Z 30004KT 10/01 A3038 RMK A01 T00960006  RH  053%=      5-min Rain = 0
KLA1 091822Z 32003KT 10/01 A3038 RMK A01 T00970008  RH  054%=      5-min Rain = 0
KLA1 091823Z 35007KT 10/01 A3038 RMK A01 T00980006  RH  053%=      5-min Rain = 0
KLA1 091824Z 36008KT 10/00 A3038 RMK A01 T00990004  RH  052%=      5-min Rain = 0
KLA1 091825Z 35006KT 10/00 A3038 RMK A01 T00990004  RH  052%=      5-min Rain = 0
KLA1 091826Z 01003KT 10/00 A3038 RMK A01 T00990004  RH  052%=      5-min Rain = 0
KLA1 091827Z 00005KT 10/00 A3037 RMK A01 T00980001  RH  051%=      5-min Rain = 0
KLA1 091828Z 34005KT 10/00 A3037 RMK A01 T00980002  RH  051%=      5-min Rain = 0
KLA1 091829Z 30006KT 10/00 A3037 RMK A01 T00980004  RH  052%=      5-min Rain = 0
KLA1 091830Z 32004KT 10/00 A3037 RMK A01 T00990003  RH  051%=      5-min Rain = 0
KLA1 091831Z 36006KT 10/01 A3037 RMK A01 T01010010  RH  053%=      5-min Rain = 0
KLA1 091832Z 34004KT 10/00 A3037 RMK A01 T01020002  RH  050%=      5-min Rain = 0
KLA1 091833Z 35008KT 10/01 A3037 RMK A01 T01020005  RH  051%=      5-min Rain = 0
KLA1 091834Z 33006KT 10/00 A3037 RMK A01 T01020003  RH  050%=      5-min Rain = 0
KLA1 091835Z 31007KT 10/01 A3037 RMK A01 T01020005  RH  051%=      5-min Rain = 0
KLA1 091836Z 35004KT 10/00 A3037 RMK A01 T01010004  RH  051%=      5-min Rain = 0
KLA1 091837Z 31003KT 10/01 A3036 RMK A01 T01010005  RH  051%=      5-min Rain = 0
KLA1 091838Z 33003KT 10/01 A3036 RMK A01 T01030008  RH  052%=      5-min Rain = 0
KLA1 091839Z 35005KT 11/01 A3036 RMK A01 T01050008  RH  051%=      5-min Rain = 0
KLA1 091840Z 36005KT 11/00 A3036 RMK A01 T01050002  RH  049%=      5-min Rain = 0
KLA1 091841Z 01004KT 10/00 A3036 RMK A01 T01030001  RH  049%=      5-min Rain = 0
KLA1 091842Z 03008KT 10/01 A3036 RMK A01 T01030005  RH  051%=      5-min Rain = 0
KLA1 091843Z 02007KT 10/01 A3036 RMK A01 T01040006  RH  051%=      5-min Rain = 0
KLA1 091844Z 02009KT 10/01 A3036 RMK A01 T01040006  RH  051%=      5-min Rain = 0
KLA1 091845Z 03008KT 10/01 A3036 RMK A01 T01040007  RH  051%=      5-min Rain = 0
KLA1 091846Z 02006KT 10/01 A3036 RMK A01 T01040006  RH  051%=      5-min Rain = 0
KLA1 091847Z 36006KT 10/01 A3036 RMK A01 T01040005  RH  050%=      5-min Rain = 0
KLA1 091848Z 03003KT 11/01 A3036 RMK A01 T01050007  RH  051%=      5-min Rain = 0
KLA1 091849Z 02008KT 11/01 A3036 RMK A01 T01050006  RH  051%=      5-min Rain = 0
KLA1 091850Z 36009KT 11/01 A3036 RMK A01 T01050006  RH  050%=      5-min Rain = 0
KLA1 091851Z 36005KT 11/01 A3036 RMK A01 T01050005  RH  050%=      5-min Rain = 0
KLA1 091852Z 00003KT 11/01 A3036 RMK A01 T01050006  RH  051%=      5-min Rain = 0
KLA1 091853Z 35005KT 11/01 A3036 RMK A01 T01050007  RH  051%=      5-min Rain = 0
KLA1 091854Z 01006KT 11/01 A3036 RMK A01 T01060007  RH  050%=      5-min Rain = 0
KLA1 091855Z 01007KT 11/01 A3036 RMK A01 T01070007  RH  050%=      5-min Rain = 0
KLA1 091856Z 01005KT 11/01 A3036 RMK A01 T01060005  RH  049%=      5-min Rain = 0
KLA1 091857Z 04001KT 11/00 A3036 RMK A01 T01050003  RH  049%=      5-min Rain = 0
KLA1 091858Z 35003G8KT 11/01 A3036 RMK A01 T01050008  RH  051%=      5-min Rain = 0
KLA1 091859Z 00007KT 11/01 A3036 RMK A01 T01060005  RH  050%=      5-min Rain = 0
KLA1 091900Z 33008KT 11/00 A3036 RMK A01 T01060004  RH  049%=      5-min Rain = 0
KLA1 091901Z 33005KT 11/00 A3036 RMK A01 T01050001  RH  049%=      5-min Rain = 0
KLA1 091902Z 34006KT 10/00 A3035 RMK A01 T01040003  RH  050%=      5-min Rain = 0
KLA1 091903Z 32005KT 11/01 A3035 RMK A01 T01050009  RH  051%=      5-min Rain = 0
KLA1 091904Z 32004KT 11/01 A3035 RMK A01 T01070008  RH  050%=      5-min Rain = 0
KLA1 091905Z 31003KT 11/00 A3035 RMK A01 T01070003  RH  049%=      5-min Rain = 0
KLA1 091906Z 36005KT 11/01 A3035 RMK A01 T01070005  RH  050%=      5-min Rain = 0
KLA1 091907Z 03004KT 11/01 A3035 RMK A01 T01070005  RH  049%=      5-min Rain = 0
KLA1 091908Z 35006KT 11/01 A3035 RMK A01 T01070005  RH  049%=      5-min Rain = 0
KLA1 091909Z 36007KT 11/01 A3035 RMK A01 T01070005  RH  049%=      5-min Rain = 0
KLA1 091910Z 36005KT 11/01 A3035 RMK A01 T01080009  RH  051%=      5-min Rain = 0
KLA1 091911Z 36006KT 11/01 A3035 RMK A01 T01090009  RH  050%=      5-min Rain = 0
KLA1 091912Z 00006KT 11/01 A3035 RMK A01 T01100012  RH  051%=      5-min Rain = 0
KLA1 091913Z 00008KT 11/01 A3035 RMK A01 T01110012  RH  050%=      5-min Rain = 0
KLA1 091914Z 35007KT 11/01 A3035 RMK A01 T01130011  RH  050%=      5-min Rain = 0
KLA1 091915Z 32005KT 11/01 A3035 RMK A01 T01120009  RH  049%=      5-min Rain = 0
KLA1 091916Z 32004KT 11/01 A3035 RMK A01 T01120012  RH  050%=      5-min Rain = 0
KLA1 091917Z 34004KT 11/01 A3035 RMK A01 T01120007  RH  048%=      5-min Rain = 0
KLA1 091918Z 34007KT 11/01 A3035 RMK A01 T01110007  RH  049%=      5-min Rain = 0
KLA1 091919Z 33008KT 11/01 A3034 RMK A01 T01110008  RH  049%=      5-min Rain = 0
KLA1 091920Z 01007KT 11/01 A3034 RMK A01 T01110010  RH  050%=      5-min Rain = 0
KLA1 091921Z 01006KT 11/01 A3034 RMK A01 T01120009  RH  049%=      5-min Rain = 0
KLA1 091922Z 34008KT 11/01 A3034 RMK A01 T01120013  RH  051%=      5-min Rain = 0
KLA1 091923Z 32007KT 11/02 A3034 RMK A01 T01130016  RH  051%=      5-min Rain = 0
KLA1 091924Z 31006KT 12/01 A3034 RMK A01 T01150013  RH  050%=      5-min Rain = 0
KLA1 091925Z 31007KT 12/01 A3034 RMK A01 T01150012  RH  049%=      5-min Rain = 0
KLA1 091926Z 29005KT 11/01 A3034 RMK A01 T01140012  RH  050%=      5-min Rain = 0
KLA1 091927Z 32003KT 11/02 A3034 RMK A01 T01140018  RH  052%=      5-min Rain = 0
KLA1 091928Z 36005KT 11/01 A3034 RMK A01 T01140010  RH  049%=      5-min Rain = 0
KLA1 091929Z 35005KT 11/01 A3034 RMK A01 T01140011  RH  049%=      5-min Rain = 0
KLA1 091930Z 35008KT 11/01 A3034 RMK A01 T01140013  RH  050%=      5-min Rain = 0
KLA1 091931Z 00008G13KT 12/02 A3034 RMK A01 T01160018  RH  051%=      5-min Rain = 0
KLA1 091932Z 36010KT 12/01 A3034 RMK A01 T01160011  RH  049%=      5-min Rain = 0
KLA1 091933Z 35008KT 11/01 A3034 RMK A01 T01130009  RH  049%=      5-min Rain = 0
KLA1 091934Z 35007KT 11/01 A3033 RMK A01 T01120011  RH  050%=      5-min Rain = 0
KLA1 091935Z 35007KT 11/01 A3033 RMK A01 T01120009  RH  049%=      5-min Rain = 0
KLA1 091936Z 34007KT 11/01 A3033 RMK A01 T01110008  RH  049%=      5-min Rain = 0
KLA1 091937Z 34006KT 11/01 A3033 RMK A01 T01100011  RH  050%=      5-min Rain = 0
KLA1 091938Z 35008KT 11/01 A3033 RMK A01 T01100010  RH  050%=      5-min Rain = 0
KLA1 091939Z 34008KT 11/01 A3033 RMK A01 T01120013  RH  050%=      5-min Rain = 0
KLA1 091940Z 34004KT 11/01 A3033 RMK A01 T01120010  RH  049%=      5-min Rain = 0
KLA1 091941Z 34007KT 11/01 A3033 RMK A01 T01130013  RH  050%=      5-min Rain = 0
KLA1 091942Z 35006KT 11/01 A3033 RMK A01 T01130012  RH  050%=      5-min Rain = 0
KLA1 091943Z 35007KT 11/01 A3033 RMK A01 T01130012  RH  050%=      5-min Rain = 0
KLA1 091944Z 35009KT 11/01 A3033 RMK A01 T01140014  RH  050%=      5-min Rain = 0
KLA1 091945Z 35006KT 11/01 A3033 RMK A01 T01140013  RH  050%=      5-min Rain = 0
KLA1 091946Z 34005KT 11/02 A3033 RMK A01 T01140015  RH  050%=      5-min Rain = 0
KLA1 091947Z 35006KT 12/02 A3033 RMK A01 T01150017  RH  051%=      5-min Rain = 0
KLA1 091948Z 34003KT 12/02 A3033 RMK A01 T01170018  RH  051%=      5-min Rain = 0
KLA1 091949Z 30003KT 12/01 A3033 RMK A01 T01170014  RH  049%=      5-min Rain = 0
KLA1 091950Z 33005KT 12/01 A3033 RMK A01 T01170012  RH  049%=      5-min Rain = 0
KLA1 091951Z 02009KT 12/02 A3033 RMK A01 T01170015  RH  050%=      5-min Rain = 0
KLA1 091952Z 01007KT 12/01 A3033 RMK A01 T01160014  RH  049%=      5-min Rain = 0
KLA1 091953Z 02006KT 12/01 A3033 RMK A01 T01150012  RH  049%=      5-min Rain = 0
KLA1 091954Z 02004KT 11/01 A3033 RMK A01 T01130010  RH  049%=      5-min Rain = 0
KLA1 091955Z 01001KT 11/01 A3033 RMK A01 T01120014  RH  051%=      5-min Rain = 0
KLA1 091956Z 01003KT 11/02 A3033 RMK A01 T01140018  RH  052%=      5-min Rain = 0
KLA1 091957Z 02006KT 12/02 A3033 RMK A01 T01160018  RH  051%=      5-min Rain = 0
KLA1 091958Z 00007KT 12/02 A3032 RMK A01 T01170017  RH  050%=      5-min Rain = 0
KLA1 091959Z 02006KT 12/02 A3032 RMK A01 T01160015  RH  050%=      5-min Rain = 0
KLA1 092000Z 02006KT 12/01 A3032 RMK A01 T01150013  RH  049%=      5-min Rain = 0
KLA1 092001Z 02007KT 12/02 A3032 RMK A01 T01160018  RH  051%=      5-min Rain = 0
KLA1 092002Z 02006KT 12/02 A3032 RMK A01 T01170023  RH  053%=      5-min Rain = 0
KLA1 092003Z 01005KT 12/02 A3032 RMK A01 T01180023  RH  052%=      5-min Rain = 0
KLA1 092004Z 36007G13KT 12/02 A3032 RMK A01 T01180019  RH  051%=      5-min Rain = 0
KLA1 092005Z 35008KT 12/02 A3032 RMK A01 T01170020  RH  051%=      5-min Rain = 0
KLA1 092006Z 36007KT 12/02 A3032 RMK A01 T01160019  RH  051%=      5-min Rain = 0
KLA1 092007Z 35007KT 12/02 A3032 RMK A01 T01150018  RH  051%=      5-min Rain = 0
KLA1 092008Z 35006KT 12/02 A3032 RMK A01 T01150016  RH  051%=      5-min Rain = 0
KLA1 092009Z 35009KT 12/02 A3032 RMK A01 T01150015  RH  050%=      5-min Rain = 0
KLA1 092010Z 34007KT 11/01 A3032 RMK A01 T01140013  RH  050%=      5-min Rain = 0
KLA1 092011Z 34007KT 11/02 A3032 RMK A01 T01130016  RH  051%=      5-min Rain = 0
KLA1 092012Z 35006KT 11/02 A3032 RMK A01 T01140018  RH  052%=      5-min Rain = 0
KLA1 092013Z 34005KT 12/02 A3032 RMK A01 T01160019  RH  051%=      5-min Rain = 0
KLA1 092014Z 35005KT 12/02 A3032 RMK A01 T01160017  RH  050%=      5-min Rain = 0
KLA1 092015Z 01004KT 12/02 A3032 RMK A01 T01160017  RH  051%=      5-min Rain = 0
KLA1 092016Z 02003KT 12/02 A3032 RMK A01 T01160019  RH  051%=      5-min Rain = 0
KLA1 092017Z 00002KT 12/02 A3032 RMK A01 T01170018  RH  051%=      5-min Rain = 0
KLA1 092018Z 02002KT 12/02 A3032 RMK A01 T01170022  RH  052%=      5-min Rain = 0
KLA1 092019Z 35008KT 12/02 A3032 RMK A01 T01190024  RH  052%=      5-min Rain = 0
KLA1 092020Z 34008KT 12/02 A3032 RMK A01 T01200020  RH  050%=      5-min Rain = 0
KLA1 092021Z 35008KT 12/02 A3032 RMK A01 T01180024  RH  052%=      5-min Rain = 0
KLA1 092022Z 33008KT 12/02 A3032 RMK A01 T01190022  RH  052%=      5-min Rain = 0
KLA1 092023Z 35007KT 12/02 A3032 RMK A01 T01190022  RH  052%=      5-min Rain = 0
KLA1 092024Z 35008KT 12/02 A3032 RMK A01 T01190019  RH  050%=      5-min Rain = 0
KLA1 092025Z 35006KT 12/02 A3032 RMK A01 T01170020  RH  051%=      5-min Rain = 0
KLA1 092026Z 00007KT 12/02 A3032 RMK A01 T01170022  RH  052%=      5-min Rain = 0
KLA1 092027Z 35009G14KT 12/02 A3032 RMK A01 T01180023  RH  052%=      5-min Rain = 0
KLA1 092028Z 36010KT 12/02 A3032 RMK A01 T01190023  RH  052%=      5-min Rain = 0
KLA1 092029Z 36008KT 12/02 A3032 RMK A01 T01180023  RH  052%=      5-min Rain = 0
KLA1 092030Z 00008KT 12/02 A3032 RMK A01 T01170023  RH  052%=      5-min Rain = 0
KLA1 092031Z 36009KT 12/02 A3032 RMK A01 T01180022  RH  052%=      5-min Rain = 0
KLA1 092032Z 00010KT 12/02 A3032 RMK A01 T01170022  RH  052%=      5-min Rain = 0
KLA1 092033Z 00008KT 12/02 A3032 RMK A01 T01170022  RH  052%=      5-min Rain = 0
KLA1 092034Z 35007KT 12/02 A3032 RMK A01 T01170021  RH  052%=      5-min Rain = 0
KLA1 092035Z 35008KT 12/02 A3032 RMK A01 T01160021  RH  052%=      5-min Rain = 0
KLA1 092036Z 33005KT 12/02 A3032 RMK A01 T01160018  RH  051%=      5-min Rain = 0
KLA1 092037Z 34007KT 12/02 A3032 RMK A01 T01150020  RH  052%=      5-min Rain = 0
KLA1 092038Z 35007KT 12/02 A3032 RMK A01 T01160019  RH  052%=      5-min Rain = 0
KLA1 092039Z 01004KT 12/02 A3032 RMK A01 T01150020  RH  052%=      5-min Rain = 0
KLA1 092040Z 03007KT 12/02 A3032 RMK A01 T01150020  RH  052%=      5-min Rain = 0
KLA1 092041Z 01004KT 12/02 A3032 RMK A01 T01160018  RH  051%=      5-min Rain = 0
KLA1 092042Z 35005KT 12/02 A3032 RMK A01 T01160021  RH  052%=      5-min Rain = 0
KLA1 092043Z 35009KT 12/02 A3032 RMK A01 T01170022  RH  052%=      5-min Rain = 0
KLA1 092044Z 36009KT 12/02 A3032 RMK A01 T01180020  RH  051%=      5-min Rain = 0
KLA1 092045Z 36007KT 12/02 A3032 RMK A01 T01170020  RH  051%=      5-min Rain = 0
KLA1 092046Z 36005KT 12/02 A3032 RMK A01 T01160017  RH  051%=      5-min Rain = 0
KLA1 092047Z 01004KT 12/02 A3032 RMK A01 T01150016  RH  050%=      5-min Rain = 0
KLA1 092048Z 35008KT 12/02 A3032 RMK A01 T01150021  RH  052%=      5-min Rain = 0
KLA1 092049Z 34007KT 12/02 A3032 RMK A01 T01170020  RH  051%=      5-min Rain = 0
KLA1 092050Z 34007KT 12/02 A3032 RMK A01 T01170018  RH  051%=      5-min Rain = 0
KLA1 092051Z 34008KT 12/02 A3032 RMK A01 T01160019  RH  051%=      5-min Rain = 0
KLA1 092052Z 35004KT 12/02 A3032 RMK A01 T01170022  RH  052%=      5-min Rain = 0
KLA1 092053Z 35006KT 12/02 A3032 RMK A01 T01180020  RH  051%=      5-min Rain = 0
KLA1 092054Z 01005KT 12/02 A3032 RMK A01 T01180019  RH  051%=      5-min Rain = 0
KLA1 092055Z 00008KT 12/02 A3032 RMK A01 T01180023  RH  052%=      5-min Rain = 0
KLA1 092056Z 36008KT 12/02 A3032 RMK A01 T01190022  RH  051%=      5-min Rain = 0
KLA1 092057Z 02006KT 12/02 A3032 RMK A01 T01190019  RH  051%=      5-min Rain = 0
KLA1 092058Z 36003KT 12/02 A3032 RMK A01 T01170021  RH  052%=      5-min Rain = 0
KLA1 092059Z 34004KT 12/02 A3032 RMK A01 T01180023  RH  052%=      5-min Rain = 0
KLA1 092100Z 34007KT 12/02 A3032 RMK A01 T01190023  RH  052%=      5-min Rain = 0
KLA1 092101Z 35004KT 12/02 A3032 RMK A01 T01190023  RH  052%=      5-min Rain = 0
KLA1 092102Z 35007KT 12/03 A3032 RMK A01 T01210026  RH  052%=      5-min Rain = 0
KLA1 092103Z 35004KT 12/03 A3032 RMK A01 T01210026  RH  052%=      5-min Rain = 0
KLA1 092104Z 35004KT 12/02 A3032 RMK A01 T01210024  RH  051%=      5-min Rain = 0
KLA1 092105Z 01005G10KT 12/02 A3032 RMK A01 T01210024  RH  052%=      5-min Rain = 0
KLA1 092106Z 00009KT 12/02 A3032 RMK A01 T01210024  RH  052%=      5-min Rain = 0
KLA1 092107Z 35007KT 12/02 A3032 RMK A01 T01200023  RH  052%=      5-min Rain = 0
KLA1 092108Z 36006KT 12/02 A3032 RMK A01 T01180023  RH  052%=      5-min Rain = 0
KLA1 092109Z 32006KT 12/02 A3032 RMK A01 T01170023  RH  052%=      5-min Rain = 0
KLA1 092110Z 35007KT 12/03 A3032 RMK A01 T01180028  RH  054%=      5-min Rain = 0
KLA1 092111Z 35007KT 12/03 A3032 RMK A01 T01200028  RH  053%=      5-min Rain = 0
KLA1 092112Z 00008KT 12/03 A3032 RMK A01 T01210029  RH  053%=      5-min Rain = 0
KLA1 092113Z 01004KT 12/03 A3032 RMK A01 T01210027  RH  053%=      5-min Rain = 0
KLA1 092114Z 02003KT 12/03 A3032 RMK A01 T01220027  RH  052%=      5-min Rain = 0
KLA1 092115Z 00008G14KT 12/03 A3032 RMK A01 T01220027  RH  052%=      5-min Rain = 0
KLA1 092116Z 34010KT 12/03 A3032 RMK A01 T01210027  RH  052%=      5-min Rain = 0
KLA1 092117Z 35007KT 12/03 A3032 RMK A01 T01210028  RH  053%=      5-min Rain = 0
KLA1 092118Z 01007KT 12/03 A3032 RMK A01 T01210029  RH  054%=      5-min Rain = 0
KLA1 092119Z 36006KT 12/03 A3032 RMK A01 T01220027  RH  052%=      5-min Rain = 0
KLA1 092120Z 00006KT 12/03 A3032 RMK A01 T01200025  RH  052%=      5-min Rain = 0
KLA1 092121Z 35006KT 12/03 A3032 RMK A01 T01200026  RH  053%=      5-min Rain = 0
KLA1 092122Z 35008KT 12/03 A3032 RMK A01 T01200026  RH  053%=      5-min Rain = 0
KLA1 092123Z 36009KT 12/03 A3032 RMK A01 T01190025  RH  053%=      5-min Rain = 0
KLA1 092124Z 36008KT 12/03 A3032 RMK A01 T01180027  RH  054%=      5-min Rain = 0
KLA1 092125Z 35008KT 12/03 A3032 RMK A01 T01180028  RH  054%=      5-min Rain = 0
KLA1 092126Z 35011KT 12/03 A3032 RMK A01 T01180028  RH  054%=      5-min Rain = 0
KLA1 092127Z 35008KT 12/03 A3032 RMK A01 T01190028  RH  054%=      5-min Rain = 0
KLA1 092128Z 35008KT 12/03 A3032 RMK A01 T01180028  RH  054%=      5-min Rain = 0
KLA1 092129Z 35008KT 12/03 A3032 RMK A01 T01170027  RH  054%=      5-min Rain = 0
KLA1 092130Z 35005KT 12/03 A3032 RMK A01 T01170026  RH  054%=      5-min Rain = 0
KLA1 092131Z 33004KT 12/03 A3032 RMK A01 T01170030  RH  055%=      5-min Rain = 0
KLA1 092132Z 33005KT 12/03 A3032 RMK A01 T01190029  RH  054%=      5-min Rain = 0
KLA1 092133Z 32005KT 12/03 A3032 RMK A01 T01190029  RH  054%=      5-min Rain = 0
KLA1 092134Z 35008KT 12/03 A3032 RMK A01 T01210033  RH  055%=      5-min Rain = 0
KLA1 092135Z 35008KT 12/03 A3032 RMK A01 T01210030  RH  054%=      5-min Rain = 0
KLA1 092136Z 00008KT 12/03 A3032 RMK A01 T01200028  RH  053%=      5-min Rain = 0
KLA1 092137Z 35006KT 12/03 A3032 RMK A01 T01190029  RH  054%=      5-min Rain = 0
KLA1 092138Z 34006KT 12/03 A3032 RMK A01 T01200028  RH  053%=      5-min Rain = 0
KLA1 092139Z 35006KT 12/03 A3032 RMK A01 T01190028  RH  053%=      5-min Rain = 0
KLA1 092140Z 35006KT 12/03 A3032 RMK A01 T01200029  RH  054%=      5-min Rain = 0
KLA1 092141Z 35005KT 12/03 A3032 RMK A01 T01200029  RH  054%=      5-min Rain = 0
KLA1 092142Z 00007KT 12/03 A3032 RMK A01 T01210030  RH  054%=      5-min Rain = 0
KLA1 092143Z 00006KT 12/03 A3032 RMK A01 T01210028  RH  053%=      5-min Rain = 0
KLA1 092144Z 36008KT 12/03 A3032 RMK A01 T01210029  RH  053%=      5-min Rain = 0
KLA1 092145Z 35007KT 12/03 A3032 RMK A01 T01200027  RH  053%=      5-min Rain = 0
KLA1 092146Z 36008KT 12/03 A3032 RMK A01 T01200028  RH  053%=      5-min Rain = 0
KLA1 092147Z 36008KT 12/03 A3032 RMK A01 T01190028  RH  054%=      5-min Rain = 0
KLA1 092148Z 01007KT 12/03 A3032 RMK A01 T01200030  RH  054%=      5-min Rain = 0
KLA1 092149Z 00008KT 12/03 A3032 RMK A01 T01210031  RH  054%=      5-min Rain = 0
KLA1 092150Z 01008KT 12/03 A3032 RMK A01 T01200027  RH  053%=      5-min Rain = 0
KLA1 092151Z 01005KT 12/03 A3031 RMK A01 T01200027  RH  053%=      5-min Rain = 0
KLA1 092152Z 00007KT 12/03 A3031 RMK A01 T01200029  RH  054%=      5-min Rain = 0
KLA1 092153Z 01007KT 12/03 A3031 RMK A01 T01210029  RH  053%=      5-min Rain = 0
KLA1 092154Z 02005KT 12/03 A3031 RMK A01 T01210026  RH  052%=      5-min Rain = 0
KLA1 092155Z 01005G10KT 12/03 A3031 RMK A01 T01200026  RH  053%=      5-min Rain = 0
KLA1 092156Z 35009KT 12/03 A3031 RMK A01 T01200027  RH  053%=      5-min Rain = 0
KLA1 092157Z 34007KT 12/02 A3031 RMK A01 T01190024  RH  052%=      5-min Rain = 0
KLA1 092158Z 34005KT 12/03 A3031 RMK A01 T01180026  RH  053%=      5-min Rain = 0
KLA1 092159Z 35005KT 12/02 A3032 RMK A01 T01180023  RH  052%=      5-min Rain = 0
KLA1 092200Z 00005KT 12/03 A3032 RMK A01 T01170025  RH  053%=      5-min Rain = 0
KLA1 092201Z 35005KT 12/02 A3031 RMK A01 T01180024  RH  052%=      5-min Rain = 0
KLA1 092202Z 36004KT 12/02 A3031 RMK A01 T01180023  RH  052%=      5-min Rain = 0
KLA1 092203Z 35006KT 12/02 A3031 RMK A01 T01180023  RH  052%=      5-min Rain = 0
KLA1 092204Z 35006KT 12/03 A3031 RMK A01 T01180026  RH  053%=      5-min Rain = 0
KLA1 092205Z 35007KT 12/02 A3031 RMK A01 T01180024  RH  053%=      5-min Rain = 0
KLA1 092206Z 34007KT 12/03 A3031 RMK A01 T01180025  RH  053%=      5-min Rain = 0
KLA1 092207Z 34007KT 12/03 A3031 RMK A01 T01180026  RH  053%=      5-min Rain = 0
KLA1 092208Z 32008KT 12/03 A3031 RMK A01 T01190025  RH  053%=      5-min Rain = 0
KLA1 092209Z 35007KT 12/03 A3031 RMK A01 T01190026  RH  053%=      5-min Rain = 0
KLA1 092210Z 33006KT 12/03 A3031 RMK A01 T01190025  RH  053%=      5-min Rain = 0
KLA1 092211Z 32005KT 12/03 A3031 RMK A01 T01180026  RH  053%=      5-min Rain = 0
KLA1 092212Z 33005KT 12/03 A3031 RMK A01 T01190026  RH  053%=      5-min Rain = 0
KLA1 092213Z 35004KT 12/03 A3031 RMK A01 T01190029  RH  054%=      5-min Rain = 0
KLA1 092214Z 35005KT 12/03 A3031 RMK A01 T01200028  RH  053%=      5-min Rain = 0
KLA1 092215Z 36006KT 12/03 A3031 RMK A01 T01210030  RH  054%=      5-min Rain = 0
KLA1 092216Z 35005KT 12/03 A3032 RMK A01 T01210029  RH  053%=      5-min Rain = 0
KLA1 092217Z 34007KT 12/03 A3032 RMK A01 T01210029  RH  053%=      5-min Rain = 0
KLA1 092218Z 36007KT 12/03 A3032 RMK A01 T01200026  RH  053%=      5-min Rain = 0
KLA1 092219Z 34006KT 12/03 A3032 RMK A01 T01190026  RH  053%=      5-min Rain = 0
KLA1 092220Z 34006KT 12/03 A3031 RMK A01 T01180025  RH  053%=      5-min Rain = 0
KLA1 092221Z 36005KT 12/03 A3031 RMK A01 T01170027  RH  054%=      5-min Rain = 0
KLA1 092222Z 36008KT 12/03 A3032 RMK A01 T01170028  RH  054%=      5-min Rain = 0
KLA1 092223Z 36010KT 12/03 A3032 RMK A01 T01180027  RH  054%=      5-min Rain = 0
KLA1 092224Z 35008KT 12/03 A3032 RMK A01 T01170026  RH  054%=      5-min Rain = 0
KLA1 092225Z 36007KT 12/03 A3032 RMK A01 T01170027  RH  054%=      5-min Rain = 0
KLA1 092226Z 00008KT 12/03 A3032 RMK A01 T01160026  RH  054%=      5-min Rain = 0
KLA1 092227Z 00007KT 12/03 A3032 RMK A01 T01160025  RH  054%=      5-min Rain = 0
KLA1 092228Z 36007KT 12/03 A3032 RMK A01 T01160026  RH  054%=      5-min Rain = 0
KLA1 092229Z 01004KT 12/03 A3032 RMK A01 T01150025  RH  054%=      5-min Rain = 0
KLA1 092230Z 35005KT 12/03 A3032 RMK A01 T01150028  RH  055%=      5-min Rain = 0
KLA1 092231Z 34004KT 12/03 A3032 RMK A01 T01160027  RH  054%=      5-min Rain = 0
KLA1 092232Z 35005KT 12/03 A3032 RMK A01 T01170026  RH  054%=      5-min Rain = 0
KLA1 092233Z 36007KT 12/03 A3032 RMK A01 T01170025  RH  054%=      5-min Rain = 0
KLA1 092234Z 36008KT 12/03 A3032 RMK A01 T01170026  RH  054%=      5-min Rain = 0
KLA1 092235Z 36007KT 12/03 A3032 RMK A01 T01160025  RH  054%=      5-min Rain = 0
KLA1 092236Z 35008KT 12/02 A3032 RMK A01 T01160024  RH  053%=      5-min Rain = 0
KLA1 092237Z 35007KT 12/03 A3032 RMK A01 T01160026  RH  054%=      5-min Rain = 0
KLA1 092238Z 35007KT 12/03 A3032 RMK A01 T01160026  RH  054%=      5-min Rain = 0
KLA1 092239Z 35008KT 12/02 A3032 RMK A01 T01150024  RH  053%=      5-min Rain = 0
KLA1 092240Z 34008KT 11/02 A3032 RMK A01 T01140023  RH  053%=      5-min Rain = 0
KLA1 092241Z 36005KT 11/02 A3032 RMK A01 T01140024  RH  054%=      5-min Rain = 0
KLA1 092242Z 36007KT 11/03 A3032 RMK A01 T01140025  RH  054%=      5-min Rain = 0
KLA1 092243Z 33006KT 11/02 A3032 RMK A01 T01140023  RH  053%=      5-min Rain = 0
KLA1 092244Z 33006KT 11/03 A3032 RMK A01 T01140026  RH  055%=      5-min Rain = 0
KLA1 092245Z 34004KT 12/03 A3032 RMK A01 T01150027  RH  055%=      5-min Rain = 0
KLA1 092246Z 33004KT 12/03 A3032 RMK A01 T01150026  RH  054%=      5-min Rain = 0
KLA1 092247Z 35005KT 12/03 A3032 RMK A01 T01150027  RH  054%=      5-min Rain = 0
KLA1 092248Z 35006KT 12/03 A3032 RMK A01 T01150026  RH  054%=      5-min Rain = 0
KLA1 092249Z 35005KT 11/03 A3032 RMK A01 T01140025  RH  054%=      5-min Rain = 0
KLA1 092250Z 34004KT 11/03 A3032 RMK A01 T01140025  RH  054%=      5-min Rain = 0
KLA1 092251Z 33004KT 11/03 A3032 RMK A01 T01140027  RH  055%=      5-min Rain = 0
KLA1 092252Z 34004KT 11/03 A3032 RMK A01 T01140027  RH  055%=      5-min Rain = 0
KLA1 092253Z 35005KT 11/03 A3032 RMK A01 T01140026  RH  055%=      5-min Rain = 0
KLA1 092254Z 35005KT 11/03 A3032 RMK A01 T01140027  RH  055%=      5-min Rain = 0
KLA1 092255Z 35008KT 11/03 A3032 RMK A01 T01140028  RH  055%=      5-min Rain = 0
KLA1 092256Z 35007KT 11/03 A3032 RMK A01 T01130026  RH  055%=      5-min Rain = 0
KLA1 092257Z 35007KT 11/03 A3032 RMK A01 T01120026  RH  055%=      5-min Rain = 0
KLA1 092258Z 35006KT 11/03 A3032 RMK A01 T01110025  RH  055%=      5-min Rain = 0
KLA1 092259Z 36008KT 11/03 A3032 RMK A01 T01110025  RH  055%=      5-min Rain = 0
KLA1 092300Z 00006KT 11/03 A3032 RMK A01 T01110026  RH  056%=      5-min Rain = 0
KLA1 092301Z 34005KT 11/03 A3032 RMK A01 T01110026  RH  056%=      5-min Rain = 0
KLA1 092302Z 34004KT 11/03 A3032 RMK A01 T01100026  RH  056%=      5-min Rain = 0
KLA1 092303Z 35007KT 11/03 A3032 RMK A01 T01110028  RH  057%=      5-min Rain = 0
KLA1 092304Z 35006KT 11/03 A3032 RMK A01 T01110026  RH  056%=      5-min Rain = 0
KLA1 092305Z 34007KT 11/03 A3032 RMK A01 T01100025  RH  056%=      5-min Rain = 0
KLA1 092306Z 35007KT 11/02 A3032 RMK A01 T01100024  RH  056%=      5-min Rain = 0
KLA1 092307Z 34006KT 11/03 A3032 RMK A01 T01090025  RH  056%=      5-min Rain = 0
KLA1 092308Z 35006KT 11/03 A3032 RMK A01 T01090025  RH  056%=      5-min Rain = 0
KLA1 092309Z 35007KT 11/02 A3032 RMK A01 T01090024  RH  056%=      5-min Rain = 0
KLA1 092310Z 34006KT 11/02 A3032 RMK A01 T01090024  RH  056%=      5-min Rain = 0
KLA1 092311Z 34005KT 11/02 A3032 RMK A01 T01080024  RH  056%=      5-min Rain = 0
KLA1 092312Z 35003KT 11/02 A3032 RMK A01 T01080024  RH  056%=      5-min Rain = 0
KLA1 092313Z 34004KT 11/03 A3032 RMK A01 T01080025  RH  057%=      5-min Rain = 0
KLA1 092314Z 35004KT 11/03 A3032 RMK A01 T01080025  RH  056%=      5-min Rain = 0
KLA1 092315Z 35004KT 11/03 A3032 RMK A01 T01080025  RH  056%=      5-min Rain = 0
KLA1 092316Z 35004KT 11/03 A3032 RMK A01 T01080026  RH  057%=      5-min Rain = 0
KLA1 092317Z 35006KT 11/03 A3032 RMK A01 T01080025  RH  056%=      5-min Rain = 0
KLA1 092318Z 35005KT 11/02 A3032 RMK A01 T01070024  RH  056%=      5-min Rain = 0
KLA1 092319Z 34004KT 11/02 A3032 RMK A01 T01070024  RH  056%=      5-min Rain = 0
KLA1 092320Z 35004KT 11/03 A3032 RMK A01 T01070025  RH  057%=      5-min Rain = 0
KLA1 092321Z 35005KT 11/03 A3032 RMK A01 T01070025  RH  057%=      5-min Rain = 0
KLA1 092322Z 35006KT 11/03 A3032 RMK A01 T01070025  RH  057%=      5-min Rain = 0
KLA1 092323Z 35006KT 11/02 A3032 RMK A01 T01060024  RH  057%=      5-min Rain = 0
KLA1 092324Z 35006KT 11/02 A3032 RMK A01 T01060023  RH  057%=      5-min Rain = 0
KLA1 092325Z 35006KT 11/02 A3032 RMK A01 T01050023  RH  057%=      5-min Rain = 0
KLA1 092326Z 35006KT 11/02 A3032 RMK A01 T01050023  RH  057%=      5-min Rain = 0
KLA1 092327Z 35006KT 10/02 A3032 RMK A01 T01040021  RH  056%=      5-min Rain = 0
KLA1 092328Z 36006KT 10/02 A3032 RMK A01 T01040022  RH  057%=      5-min Rain = 0
KLA1 092329Z 35005KT 10/02 A3032 RMK A01 T01040022  RH  057%=      5-min Rain = 0
KLA1 092330Z 35005KT 10/02 A3032 RMK A01 T01030024  RH  058%=      5-min Rain = 0
KLA1 092331Z 35004KT 10/02 A3032 RMK A01 T01020023  RH  058%=      5-min Rain = 0
KLA1 092332Z 34004KT 10/02 A3032 RMK A01 T01020024  RH  059%=      5-min Rain = 0
KLA1 092333Z 35006KT 10/02 A3032 RMK A01 T01010024  RH  059%=      5-min Rain = 0
KLA1 092334Z 36004KT 10/02 A3033 RMK A01 T01010023  RH  058%=      5-min Rain = 0
KLA1 092335Z 35004KT 10/02 A3033 RMK A01 T01010024  RH  059%=      5-min Rain = 0
KLA1 092336Z 35006KT 10/02 A3033 RMK A01 T01000023  RH  059%=      5-min Rain = 0
KLA1 092337Z 35005KT 10/02 A3033 RMK A01 T00990022  RH  059%=      5-min Rain = 0
KLA1 092338Z 35005KT 10/02 A3033 RMK A01 T00990023  RH  059%=      5-min Rain = 0
KLA1 092339Z 34005KT 10/02 A3033 RMK A01 T00990021  RH  058%=      5-min Rain = 0
KLA1 092340Z 35005KT 10/02 A3033 RMK A01 T00990022  RH  059%=      5-min Rain = 0
KLA1 092341Z 35005KT 10/02 A3033 RMK A01 T00980022  RH  059%=      5-min Rain = 0
KLA1 092342Z 34005KT 10/02 A3033 RMK A01 T00970023  RH  060%=      5-min Rain = 0
KLA1 092343Z 35005KT 10/02 A3033 RMK A01 T00960022  RH  060%=      5-min Rain = 0
KLA1 092344Z 35006KT 10/02 A3033 RMK A01 T00960022  RH  060%=      5-min Rain = 0
KLA1 092345Z 35007KT 10/02 A3033 RMK A01 T00960021  RH  059%=      5-min Rain = 0
KLA1 092346Z 35005KT 10/02 A3033 RMK A01 T00960021  RH  059%=      5-min Rain = 0
KLA1 092347Z 34004KT 10/02 A3033 RMK A01 T00960021  RH  060%=      5-min Rain = 0
KLA1 092348Z 35004KT 10/02 A3033 RMK A01 T00960022  RH  060%=      5-min Rain = 0
KLA1 092349Z 35005KT 10/02 A3033 RMK A01 T00950022  RH  060%=      5-min Rain = 0
KLA1 092350Z 36005KT 10/02 A3033 RMK A01 T00950022  RH  061%=      5-min Rain = 0
KLA1 092351Z 35005KT 09/02 A3033 RMK A01 T00930023  RH  061%=      5-min Rain = 0
KLA1 092352Z 35006KT 09/02 A3033 RMK A01 T00930022  RH  061%=      5-min Rain = 0
KLA1 092353Z 35006KT 09/02 A3033 RMK A01 T00930021  RH  061%=      5-min Rain = 0
KLA1 092354Z 00003KT 09/02 A3033 RMK A01 T00930021  RH  061%=      5-min Rain = 0
KLA1 092355Z 35004KT 09/02 A3033 RMK A01 T00930022  RH  061%=      5-min Rain = 0
KLA1 092356Z 35004KT 09/02 A3033 RMK A01 T00920022  RH  061%=      5-min Rain = 0
KLA1 092357Z 36003KT 09/02 A3033 RMK A01 T00920022  RH  062%=      5-min Rain = 0
KLA1 092358Z 36006KT 09/02 A3033 RMK A01 T00910022  RH  062%=      5-min Rain = 0
KLA1 092359Z 35005KT 09/02 A3033 RMK A01 T00900022  RH  062%=      5-min Rain = 0
KLA1 100000Z 35004KT 09/02 A3033 RMK A01 T00900022  RH  062%=      5-min Rain = 0
KLA1 100001Z 36006KT 09/02 A3033 RMK A01 T00900022  RH  062%=      5-min Rain = 0
KLA1 100002Z 35005KT 09/02 A3033 RMK A01 T00900022  RH  062%=      5-min Rain = 0
KLA1 100003Z 00005KT 09/02 A3033 RMK A01 T00890022  RH  063%=      5-min Rain = 0
KLA1 100004Z 36006KT 09/02 A3033 RMK A01 T00890023  RH  063%=      5-min Rain = 0
KLA1 100005Z 35004KT 09/02 A3033 RMK A01 T00880022  RH  063%=      5-min Rain = 0
KLA1 100006Z 36005KT 09/02 A3033 RMK A01 T00870022  RH  064%=      5-min Rain = 0
KLA1 100007Z 35005KT 09/02 A3033 RMK A01 T00870021  RH  064%=      5-min Rain = 0
KLA1 100008Z 36005KT 09/02 A3033 RMK A01 T00860021  RH  063%=      5-min Rain = 0
KLA1 100009Z 36006KT 09/02 A3033 RMK A01 T00870022  RH  064%=      5-min Rain = 0
KLA1 100010Z 00004KT 09/02 A3033 RMK A01 T00860021  RH  064%=      5-min Rain = 0
KLA1 100011Z 00005KT 09/02 A3033 RMK A01 T00860022  RH  064%=      5-min Rain = 0
KLA1 100012Z 00005KT 09/02 A3033 RMK A01 T00850021  RH  064%=      5-min Rain = 0
KLA1 100013Z 36006KT 09/02 A3033 RMK A01 T00850021  RH  064%=      5-min Rain = 0
KLA1 100014Z 01006KT 09/02 A3033 RMK A01 T00850021  RH  064%=      5-min Rain = 0
KLA1 100015Z 36006KT 09/02 A3033 RMK A01 T00850021  RH  064%=      5-min Rain = 0
KLA1 100016Z 00006KT 09/02 A3034 RMK A01 T00850021  RH  064%=      5-min Rain = 0
KLA1 100017Z 00006KT 08/02 A3034 RMK A01 T00840021  RH  064%=      5-min Rain = 0
KLA1 100018Z 00006KT 08/02 A3034 RMK A01 T00840021  RH  065%=      5-min Rain = 0
KLA1 100019Z 00006KT 08/02 A3034 RMK A01 T00830022  RH  065%=      5-min Rain = 0
KLA1 100020Z 00006KT 08/02 A3034 RMK A01 T00830022  RH  065%=      5-min Rain = 0
KLA1 100021Z 00006KT 08/02 A3034 RMK A01 T00830021  RH  065%=      5-min Rain = 0
KLA1 100022Z 00005KT 08/02 A3034 RMK A01 T00820021  RH  065%=      5-min Rain = 0
KLA1 100023Z 00006KT 08/02 A3034 RMK A01 T00810021  RH  066%=      5-min Rain = 0
KLA1 100024Z 01006KT 08/02 A3034 RMK A01 T00810021  RH  066%=      5-min Rain = 0
KLA1 100025Z 00006KT 08/02 A3034 RMK A01 T00810021  RH  066%=      5-min Rain = 0
KLA1 100026Z 36006KT 08/02 A3034 RMK A01 T00810021  RH  066%=      5-min Rain = 0
KLA1 100027Z 00006KT 08/02 A3034 RMK A01 T00800021  RH  066%=      5-min Rain = 0
KLA1 100028Z 00006KT 08/02 A3034 RMK A01 T00800021  RH  066%=      5-min Rain = 0
KLA1 100029Z 00006KT 08/02 A3034 RMK A01 T00800021  RH  067%=      5-min Rain = 0
KLA1 100030Z 00007KT 08/02 A3034 RMK A01 T00790021  RH  067%=      5-min Rain = 0
KLA1 100031Z 00007KT 08/02 A3034 RMK A01 T00790021  RH  067%=      5-min Rain = 0
KLA1 100032Z 00006KT 08/02 A3034 RMK A01 T00790021  RH  066%=      5-min Rain = 0
KLA1 100033Z 00005KT 08/02 A3034 RMK A01 T00790021  RH  067%=      5-min Rain = 0
KLA1 100034Z 00006KT 08/02 A3034 RMK A01 T00790021  RH  067%=      5-min Rain = 0
KLA1 100035Z 35005KT 08/02 A3034 RMK A01 T00780020  RH  067%=      5-min Rain = 0
KLA1 100036Z 35005KT 08/02 A3034 RMK A01 T00780020  RH  067%=      5-min Rain = 0
KLA1 100037Z 35005KT 08/02 A3034 RMK A01 T00780020  RH  067%=      5-min Rain = 0
KLA1 100038Z 35006KT 08/02 A3034 RMK A01 T00780019  RH  066%=      5-min Rain = 0
KLA1 100039Z 00006KT 08/02 A3034 RMK A01 T00780019  RH  066%=      5-min Rain = 0
KLA1 100040Z 36006KT 08/02 A3034 RMK A01 T00790018  RH  066%=      5-min Rain = 0
KLA1 100041Z 36006KT 08/02 A3034 RMK A01 T00790019  RH  066%=      5-min Rain = 0
KLA1 100042Z 00005KT 08/02 A3034 RMK A01 T00790019  RH  066%=      5-min Rain = 0
KLA1 100043Z 00006KT 08/02 A3034 RMK A01 T00790020  RH  066%=      5-min Rain = 0
KLA1 100044Z 00006KT 08/02 A3034 RMK A01 T00780019  RH  066%=      5-min Rain = 0
KLA1 100045Z 36006KT 08/02 A3035 RMK A01 T00780019  RH  066%=      5-min Rain = 0
KLA1 100046Z 00006KT 08/02 A3035 RMK A01 T00780020  RH  067%=      5-min Rain = 0
KLA1 100047Z 36006KT 08/02 A3035 RMK A01 T00770019  RH  067%=      5-min Rain = 0
KLA1 100048Z 36006KT 08/02 A3035 RMK A01 T00770020  RH  067%=      5-min Rain = 0
KLA1 100049Z 36006KT 08/02 A3035 RMK A01 T00760020  RH  067%=      5-min Rain = 0
KLA1 100050Z 36005KT 08/02 A3035 RMK A01 T00760019  RH  067%=      5-min Rain = 0
KLA1 100051Z 36005KT 08/02 A3035 RMK A01 T00770019  RH  067%=      5-min Rain = 0
KLA1 100052Z 00006KT 08/02 A3035 RMK A01 T00760019  RH  067%=      5-min Rain = 0
KLA1 100053Z 01006KT 08/02 A3035 RMK A01 T00770020  RH  067%=      5-min Rain = 0
KLA1 100054Z 00005KT 08/02 A3035 RMK A01 T00760020  RH  067%=      5-min Rain = 0
KLA1 100055Z 00006KT 08/02 A3035 RMK A01 T00760020  RH  068%=      5-min Rain = 0
KLA1 100056Z 00006KT 08/02 A3035 RMK A01 T00750019  RH  068%=      5-min Rain = 0
KLA1 100057Z 00006KT 08/02 A3035 RMK A01 T00750019  RH  068%=      5-min Rain = 0
KLA1 100058Z 01006KT 08/02 A3035 RMK A01 T00750020  RH  068%=      5-min Rain = 0
KLA1 100059Z 00005KT 07/02 A3035 RMK A01 T00740019  RH  068%=      5-min Rain = 0
KLA1 100100Z 00005KT 07/02 A3035 RMK A01 T00740019  RH  068%=      5-min Rain = 0
KLA1 100101Z 36005KT 07/02 A3035 RMK A01 T00730020  RH  069%=      5-min Rain = 0
KLA1 100102Z 36004KT 07/02 A3035 RMK A01 T00730020  RH  069%=      5-min Rain = 0
KLA1 100103Z 36005KT 07/02 A3035 RMK A01 T00730019  RH  069%=      5-min Rain = 0
KLA1 100104Z 36006KT 07/02 A3035 RMK A01 T00720019  RH  069%=      5-min Rain = 0
KLA1 100105Z 00006KT 07/02 A3035 RMK A01 T00720019  RH  069%=      5-min Rain = 0
KLA1 100106Z 00006KT 07/02 A3035 RMK A01 T00720019  RH  069%=      5-min Rain = 0
KLA1 100107Z 00006KT 07/02 A3035 RMK A01 T00720019  RH  069%=      5-min Rain = 0
KLA1 100108Z 00006KT 07/02 A3035 RMK A01 T00720020  RH  069%=      5-min Rain = 0
KLA1 100109Z 00005KT 07/02 A3035 RMK A01 T00720019  RH  069%=      5-min Rain = 0
KLA1 100110Z 00006KT 07/02 A3035 RMK A01 T00720019  RH  069%=      5-min Rain = 0
KLA1 100111Z 00005KT 07/02 A3035 RMK A01 T00720019  RH  069%=      5-min Rain = 0
KLA1 100112Z 00006KT 07/02 A3035 RMK A01 T00720019  RH  069%=      5-min Rain = 0
KLA1 100113Z 00006KT 07/02 A3035 RMK A01 T00720019  RH  069%=      5-min Rain = 0
KLA1 100114Z 00006KT 07/02 A3035 RMK A01 T00720019  RH  069%=      5-min Rain = 0
KLA1 100115Z 01005KT 07/02 A3035 RMK A01 T00720019  RH  069%=      5-min Rain = 0
KLA1 100116Z 36006KT 07/02 A3035 RMK A01 T00720019  RH  069%=      5-min Rain = 0
KLA1 100117Z 00005KT 07/02 A3035 RMK A01 T00720019  RH  069%=      5-min Rain = 0
KLA1 100118Z 36006KT 07/02 A3036 RMK A01 T00720019  RH  069%=      5-min Rain = 0
KLA1 100119Z 00005KT 07/02 A3036 RMK A01 T00710019  RH  069%=      5-min Rain = 0
KLA1 100120Z 00006KT 07/02 A3036 RMK A01 T00710019  RH  070%=      5-min Rain = 0
KLA1 100121Z 01005KT 07/02 A3036 RMK A01 T00710019  RH  070%=      5-min Rain = 0
KLA1 100122Z 01006KT 07/02 A3036 RMK A01 T00710019  RH  070%=      5-min Rain = 0
KLA1 100123Z 00005KT 07/02 A3036 RMK A01 T00700019  RH  070%=      5-min Rain = 0
KLA1 100124Z 00005KT 07/02 A3036 RMK A01 T00700019  RH  070%=      5-min Rain = 0
KLA1 100125Z 00006KT 07/02 A3036 RMK A01 T00700019  RH  070%=      5-min Rain = 0
KLA1 100126Z 00005KT 07/02 A3036 RMK A01 T00710020  RH  070%=      5-min Rain = 0
KLA1 100127Z 00006KT 07/02 A3036 RMK A01 T00700020  RH  070%=      5-min Rain = 0
KLA1 100128Z 00006KT 07/02 A3036 RMK A01 T00700019  RH  070%=      5-min Rain = 0
KLA1 100129Z 00005KT 07/02 A3036 RMK A01 T00700019  RH  070%=      5-min Rain = 0
KLA1 100130Z 35004KT 07/02 A3036 RMK A01 T00700020  RH  070%=      5-min Rain = 0
KLA1 100131Z 36005KT 07/02 A3036 RMK A01 T00690019  RH  070%=      5-min Rain = 0
KLA1 100132Z 36006KT 07/02 A3036 RMK A01 T00700019  RH  070%=      5-min Rain = 0
KLA1 100133Z 36004KT 07/02 A3036 RMK A01 T00700018  RH  070%=      5-min Rain = 0
KLA1 100134Z 36005KT 07/02 A3036 RMK A01 T00700018  RH  069%=      5-min Rain = 0
KLA1 100135Z 36005KT 07/02 A3036 RMK A01 T00700019  RH  070%=      5-min Rain = 0
KLA1 100136Z 35005KT 07/02 A3036 RMK A01 T00710019  RH  070%=      5-min Rain = 0
KLA1 100137Z 35005KT 07/02 A3036 RMK A01 T00710019  RH  069%=      5-min Rain = 0
KLA1 100138Z 34005KT 07/02 A3036 RMK A01 T00700018  RH  069%=      5-min Rain = 0
KLA1 100139Z 34005KT 07/02 A3036 RMK A01 T00710018  RH  069%=      5-min Rain = 0
KLA1 100140Z 34005KT 07/02 A3036 RMK A01 T00710018  RH  069%=      5-min Rain = 0
KLA1 100141Z 35004KT 07/02 A3036 RMK A01 T00700018  RH  069%=      5-min Rain = 0
KLA1 100142Z 34004KT 07/02 A3036 RMK A01 T00710018  RH  069%=      5-min Rain = 0
KLA1 100143Z 35004KT 07/02 A3036 RMK A01 T00700018  RH  069%=      5-min Rain = 0
KLA1 100144Z 33003KT 07/02 A3036 RMK A01 T00710019  RH  069%=      5-min Rain = 0
KLA1 100145Z 33003KT 07/02 A3036 RMK A01 T00700018  RH  070%=      5-min Rain = 0
KLA1 100146Z 34003KT 07/02 A3036 RMK A01 T00700018  RH  070%=      5-min Rain = 0
KLA1 100147Z 33003KT 07/02 A3036 RMK A01 T00700018  RH  070%=      5-min Rain = 0
KLA1 100148Z 34004KT 07/02 A3036 RMK A01 T00690018  RH  070%=      5-min Rain = 0
KLA1 100149Z 34003KT 07/02 A3036 RMK A01 T00700017  RH  069%=      5-min Rain = 0
KLA1 100150Z 33003KT 07/02 A3036 RMK A01 T00700018  RH  069%=      5-min Rain = 0
KLA1 100151Z 34003KT 07/02 A3036 RMK A01 T00700018  RH  069%=      5-min Rain = 0
KLA1 100152Z 35002KT 07/02 A3036 RMK A01 T00690018  RH  070%=      5-min Rain = 0
KLA1 100153Z 32001KT 07/02 A3036 RMK A01 T00680017  RH  070%=      5-min Rain = 0
KLA1 100154Z 32001KT 07/02 A3036 RMK A01 T00670017  RH  070%=      5-min Rain = 0
KLA1 100155Z 33000KT 07/02 A3036 RMK A01 T00660017  RH  071%=      5-min Rain = 0
KLA1 100156Z 00000KT 06/02 A3036 RMK A01 T00640017  RH  072%=      5-min Rain = 0
KLA1 100157Z 00000KT 06/02 A3036 RMK A01 T00630016  RH  072%=      5-min Rain = 0
KLA1 100158Z 00000KT 06/02 A3036 RMK A01 T00630017  RH  072%=      5-min Rain = 0
KLA1 100159Z 03000KT 06/02 A3036 RMK A01 T00620016  RH  072%=      5-min Rain = 0
KLA1 100200Z 00000KT 06/02 A3037 RMK A01 T00620017  RH  073%=      5-min Rain = 0
KLA1 100201Z 00000KT 06/02 A3037 RMK A01 T00620016  RH  072%=      5-min Rain = 0
KLA1 100202Z 33000KT 06/02 A3037 RMK A01 T00620017  RH  073%=      5-min Rain = 0
KLA1 100203Z 00000KT 06/02 A3037 RMK A01 T00600018  RH  074%=      5-min Rain = 0
KLA1 100204Z 33001KT 06/02 A3037 RMK A01 T00580018  RH  076%=      5-min Rain = 0
KLA1 100205Z 33001KT 06/02 A3037 RMK A01 T00560018  RH  076%=      5-min Rain = 0
KLA1 100206Z 35001KT 06/02 A3037 RMK A01 T00560017  RH  076%=      5-min Rain = 0
KLA1 100207Z 35001KT 05/02 A3037 RMK A01 T00540016  RH  076%=      5-min Rain = 0
KLA1 100208Z 34002KT 05/02 A3037 RMK A01 T00540015  RH  076%=      5-min Rain = 0
KLA1 100209Z 36001KT 06/02 A3037 RMK A01 T00550015  RH  075%=      5-min Rain = 0
KLA1 100210Z 35002KT 06/02 A3037 RMK A01 T00550015  RH  075%=      5-min Rain = 0
KLA1 100211Z 35002KT 06/02 A3037 RMK A01 T00550015  RH  075%=      5-min Rain = 0
KLA1 100212Z 35002KT 06/02 A3037 RMK A01 T00550015  RH  075%=      5-min Rain = 0
KLA1 100213Z 35002KT 06/02 A3037 RMK A01 T00570015  RH  074%=      5-min Rain = 0
KLA1 100214Z 35002KT 06/01 A3037 RMK A01 T00580014  RH  073%=      5-min Rain = 0
KLA1 100215Z 35002KT 06/01 A3037 RMK A01 T00590014  RH  073%=      5-min Rain = 0
KLA1 100216Z 34001KT 06/01 A3037 RMK A01 T00600014  RH  072%=      5-min Rain = 0
KLA1 100217Z 35002KT 06/01 A3037 RMK A01 T00590014  RH  072%=      5-min Rain = 0
KLA1 100218Z 36002KT 06/01 A3037 RMK A01 T00590014  RH  072%=      5-min Rain = 0
KLA1 100219Z 36001KT 06/01 A3037 RMK A01 T00590013  RH  072%=      5-min Rain = 0
KLA1 100220Z 36001KT 06/01 A3037 RMK A01 T00590013  RH  072%=      5-min Rain = 0
KLA1 100221Z 01002KT 06/01 A3037 RMK A01 T00590013  RH  072%=      5-min Rain = 0
KLA1 100222Z 00003KT 06/01 A3037 RMK A01 T00590013  RH  072%=      5-min Rain = 0
KLA1 100223Z 00003KT 06/01 A3038 RMK A01 T00590013  RH  072%=      5-min Rain = 0
KLA1 100224Z 35003KT 06/01 A3038 RMK A01 T00590013  RH  072%=      5-min Rain = 0
KLA1 100225Z 35002KT 06/01 A3038 RMK A01 T00590013  RH  072%=      5-min Rain = 0
KLA1 100226Z 35002KT 06/01 A3038 RMK A01 T00590012  RH  072%=      5-min Rain = 0
KLA1 100227Z 00003KT 06/01 A3038 RMK A01 T00590012  RH  072%=      5-min Rain = 0
KLA1 100228Z 36003KT 06/01 A3038 RMK A01 T00580012  RH  072%=      5-min Rain = 0
KLA1 100229Z 36003KT 06/01 A3038 RMK A01 T00580013  RH  072%=      5-min Rain = 0
KLA1 100230Z 36003KT 06/01 A3038 RMK A01 T00580013  RH  073%=      5-min Rain = 0
KLA1 100231Z 36004KT 06/01 A3038 RMK A01 T00570013  RH  073%=      5-min Rain = 0
KLA1 100232Z 00004KT 06/01 A3038 RMK A01 T00560013  RH  074%=      5-min Rain = 0
KLA1 100233Z 00004KT 06/01 A3038 RMK A01 T00550013  RH  074%=      5-min Rain = 0
KLA1 100234Z 00005KT 06/01 A3038 RMK A01 T00550013  RH  074%=      5-min Rain = 0
KLA1 100235Z 00004KT 06/01 A3038 RMK A01 T00550013  RH  075%=      5-min Rain = 0
KLA1 100236Z 00004KT 05/01 A3038 RMK A01 T00540013  RH  075%=      5-min Rain = 0
KLA1 100237Z 00005KT 05/01 A3038 RMK A01 T00540013  RH  075%=      5-min Rain = 0
KLA1 100238Z 00005KT 05/01 A3038 RMK A01 T00540013  RH  075%=      5-min Rain = 0
KLA1 100239Z 01005KT 05/01 A3038 RMK A01 T00540013  RH  075%=      5-min Rain = 0
KLA1 100240Z 00004KT 05/01 A3038 RMK A01 T00530013  RH  075%=      5-min Rain = 0
KLA1 100241Z 01005KT 05/01 A3038 RMK A01 T00530014  RH  076%=      5-min Rain = 0
KLA1 100242Z 01005KT 05/01 A3038 RMK A01 T00530013  RH  076%=      5-min Rain = 0
KLA1 100243Z 02005KT 05/01 A3038 RMK A01 T00530013  RH  076%=      5-min Rain = 0
KLA1 100244Z 01005KT 05/01 A3038 RMK A01 T00520013  RH  075%=      5-min Rain = 0
KLA1 100245Z 02005KT 05/01 A3038 RMK A01 T00520013  RH  076%=      5-min Rain = 0
KLA1 100246Z 02006KT 05/01 A3038 RMK A01 T00520012  RH  076%=      5-min Rain = 0
KLA1 100247Z 01006KT 05/01 A3038 RMK A01 T00520012  RH  076%=      5-min Rain = 0
KLA1 100248Z 01006KT 05/01 A3038 RMK A01 T00520012  RH  076%=      5-min Rain = 0
KLA1 100249Z 01006KT 05/01 A3038 RMK A01 T00520012  RH  076%=      5-min Rain = 0
KLA1 100250Z 01006KT 05/01 A3038 RMK A01 T00520013  RH  076%=      5-min Rain = 0
KLA1 100251Z 01006KT 05/01 A3038 RMK A01 T00510013  RH  076%=      5-min Rain = 0
KLA1 100252Z 01006KT 05/01 A3038 RMK A01 T00510012  RH  076%=      5-min Rain = 0
KLA1 100253Z 02006KT 05/01 A3038 RMK A01 T00510012  RH  076%=      5-min Rain = 0
KLA1 100254Z 02006KT 05/01 A3038 RMK A01 T00510012  RH  076%=      5-min Rain = 0
KLA1 100255Z 02006KT 05/01 A3038 RMK A01 T00520012  RH  075%=      5-min Rain = 0
KLA1 100256Z 02006KT 05/01 A3038 RMK A01 T00520012  RH  075%=      5-min Rain = 0
KLA1 100257Z 02006KT 05/01 A3038 RMK A01 T00520012  RH  075%=      5-min Rain = 0
KLA1 100258Z 02006KT 05/01 A3038 RMK A01 T00530012  RH  075%=      5-min Rain = 0
KLA1 100259Z 01005KT 05/01 A3039 RMK A01 T00540012  RH  074%=      5-min Rain = 0
KLA1 100300Z 01005KT 05/01 A3039 RMK A01 T00540011  RH  074%=      5-min Rain = 0
KLA1 100301Z 01004KT 05/01 A3039 RMK A01 T00530011  RH  074%=      5-min Rain = 0
KLA1 100302Z 01004KT 05/01 A3039 RMK A01 T00530012  RH  075%=      5-min Rain = 0
KLA1 100303Z 02004KT 05/01 A3039 RMK A01 T00530012  RH  075%=      5-min Rain = 0
KLA1 100304Z 02005KT 05/01 A3039 RMK A01 T00520011  RH  075%=      5-min Rain = 0
KLA1 100305Z 03004KT 05/01 A3039 RMK A01 T00520011  RH  075%=      5-min Rain = 0
KLA1 100306Z 03004KT 05/01 A3039 RMK A01 T00510011  RH  075%=      5-min Rain = 0
KLA1 100307Z 02004KT 05/01 A3039 RMK A01 T00510011  RH  075%=      5-min Rain = 0
KLA1 100308Z 03003KT 05/01 A3039 RMK A01 T00500011  RH  076%=      5-min Rain = 0
KLA1 100309Z 03003KT 05/01 A3039 RMK A01 T00500011  RH  076%=      5-min Rain = 0
KLA1 100310Z 02003KT 05/01 A3039 RMK A01 T00500011  RH  076%=      5-min Rain = 0
KLA1 100311Z 03003KT 05/01 A3039 RMK A01 T00500011  RH  076%=      5-min Rain = 0
KLA1 100312Z 03002KT 05/01 A3039 RMK A01 T00490010  RH  076%=      5-min Rain = 0
KLA1 100313Z 02002KT 05/01 A3039 RMK A01 T00490010  RH  076%=      5-min Rain = 0
KLA1 100314Z 03002KT 05/01 A3039 RMK A01 T00480010  RH  076%=      5-min Rain = 0
KLA1 100315Z 02002KT 05/01 A3039 RMK A01 T00470010  RH  077%=      5-min Rain = 0
KLA1 100316Z 02002KT 05/01 A3039 RMK A01 T00470010  RH  077%=      5-min Rain = 0
KLA1 100317Z 02003KT 05/01 A3039 RMK A01 T00460010  RH  077%=      5-min Rain = 0
KLA1 100318Z 02003KT 05/01 A3039 RMK A01 T00460010  RH  078%=      5-min Rain = 0
KLA1 100319Z 01002KT 05/01 A3039 RMK A01 T00450010  RH  078%=      5-min Rain = 0
KLA1 100320Z 01001KT 05/01 A3039 RMK A01 T00450010  RH  078%=      5-min Rain = 0
KLA1 100321Z 01002KT 05/01 A3039 RMK A01 T00450010  RH  078%=      5-min Rain = 0
KLA1 100322Z 01003KT 04/01 A304 RMK A01 T00440010  RH  079%=      5-min Rain = 0
KLA1 100323Z 01003KT 04/01 A304 RMK A01 T00440010  RH  079%=      5-min Rain = 0
KLA1 100324Z 00003KT 04/01 A304 RMK A01 T00430010  RH  079%=      5-min Rain = 0
KLA1 100325Z 00003KT 04/01 A304 RMK A01 T00430010  RH  079%=      5-min Rain = 0
KLA1 100326Z 01003KT 04/01 A304 RMK A01 T00420011  RH  080%=      5-min Rain = 0
KLA1 100327Z 01003KT 04/01 A304 RMK A01 T00420011  RH  080%=      5-min Rain = 0
KLA1 100328Z 01003KT 04/01 A304 RMK A01 T00420011  RH  080%=      5-min Rain = 0
KLA1 100329Z 01004KT 04/01 A304 RMK A01 T00420010  RH  080%=      5-min Rain = 0
KLA1 100330Z 00004KT 04/01 A304 RMK A01 T00420011  RH  080%=      5-min Rain = 0
KLA1 100331Z 00004KT 04/01 A304 RMK A01 T00410010  RH  080%=      5-min Rain = 0
KLA1 100332Z 01004KT 04/01 A304 RMK A01 T00410010  RH  081%=      5-min Rain = 0
KLA1 100333Z 01004KT 04/01 A304 RMK A01 T00400010  RH  081%=      5-min Rain = 0
KLA1 100334Z 01004KT 04/01 A304 RMK A01 T00400010  RH  081%=      5-min Rain = 0
KLA1 100335Z 01004KT 04/01 A304 RMK A01 T00400010  RH  081%=      5-min Rain = 0
KLA1 100336Z 01004KT 04/01 A304 RMK A01 T00390010  RH  081%=      5-min Rain = 0
KLA1 100337Z 01004KT 04/01 A304 RMK A01 T00390010  RH  081%=      5-min Rain = 0
KLA1 100338Z 01004KT 04/01 A304 RMK A01 T00390010  RH  081%=      5-min Rain = 0
KLA1 100339Z 01004KT 04/01 A304 RMK A01 T00390010  RH  081%=      5-min Rain = 0
KLA1 100340Z 01004KT 04/01 A304 RMK A01 T00390010  RH  081%=      5-min Rain = 0
KLA1 100341Z 02004KT 04/01 A304 RMK A01 T00390010  RH  081%=      5-min Rain = 0
KLA1 100342Z 02004KT 04/01 A304 RMK A01 T00390010  RH  081%=      5-min Rain = 0
KLA1 100343Z 01004KT 04/01 A304 RMK A01 T00390010  RH  081%=      5-min Rain = 0
KLA1 100344Z 02004KT 04/01 A304 RMK A01 T00390011  RH  082%=      5-min Rain = 0
KLA1 100345Z 02003KT 04/01 A304 RMK A01 T00390011  RH  082%=      5-min Rain = 0
KLA1 100346Z 03002KT 04/01 A304 RMK A01 T00390011  RH  082%=      5-min Rain = 0
KLA1 100347Z 08001KT 04/01 A304 RMK A01 T00390010  RH  081%=      5-min Rain = 0
KLA1 100348Z 18002KT 04/01 A304 RMK A01 T00360006  RH  081%=      5-min Rain = 0
KLA1 100349Z 19002KT 03/01 A304 RMK A01 T00330005  RH  082%=      5-min Rain = 0
KLA1 100350Z 20002KT 03/01 A304 RMK A01 T00320006  RH  083%=      5-min Rain = 0
KLA1 100351Z 20003KT 03/01 A304 RMK A01 T00310007  RH  085%=      5-min Rain = 0
KLA1 100352Z 20003KT 03/01 A304 RMK A01 T00310008  RH  085%=      5-min Rain = 0
KLA1 100353Z 21002KT 03/01 A304 RMK A01 T00310009  RH  085%=      5-min Rain = 0
KLA1 100354Z 21003KT 03/01 A304 RMK A01 T00310009  RH  085%=      5-min Rain = 0
KLA1 100355Z 21004KT 03/01 A304 RMK A01 T00320009  RH  085%=      5-min Rain = 0
KLA1 100356Z 21004KT 03/01 A304 RMK A01 T00320009  RH  085%=      5-min Rain = 0
KLA1 100357Z 22003KT 03/01 A304 RMK A01 T00310009  RH  085%=      5-min Rain = 0
KLA1 100358Z 22003KT 03/01 A304 RMK A01 T00310010  RH  086%=      5-min Rain = 0
KLA1 100359Z 22002KT 03/01 A304 RMK A01 T00300009  RH  086%=      5-min Rain = 0
KLA1 100400Z 23001KT 03/01 A304 RMK A01 T00300009  RH  086%=      5-min Rain = 0
KLA1 100401Z 23001KT 03/01 A304 RMK A01 T00290008  RH  086%=      5-min Rain = 0
KLA1 100402Z 25001KT 03/01 A304 RMK A01 T00290008  RH  086%=      5-min Rain = 0
KLA1 100403Z 27002KT 03/01 A304 RMK A01 T00280008  RH  087%=      5-min Rain = 0
KLA1 100404Z 27002KT 03/01 A304 RMK A01 T00280008  RH  087%=      5-min Rain = 0
KLA1 100405Z 28002KT 03/01 A304 RMK A01 T00270008  RH  087%=      5-min Rain = 0
KLA1 100406Z 29002KT 03/01 A304 RMK A01 T00270008  RH  087%=      5-min Rain = 0
KLA1 100407Z 29003KT 03/01 A304 RMK A01 T00270009  RH  087%=      5-min Rain = 0
KLA1 100408Z 28002KT 03/01 A304 RMK A01 T00280010  RH  088%=      5-min Rain = 0
KLA1 100409Z 29002KT 03/01 A304 RMK A01 T00290010  RH  087%=      5-min Rain = 0
KLA1 100410Z 29003KT 03/01 A304 RMK A01 T00290010  RH  087%=      5-min Rain = 0
KLA1 100411Z 28004KT 03/01 A304 RMK A01 T00290009  RH  087%=      5-min Rain = 0
KLA1 100412Z 28004KT 03/01 A304 RMK A01 T00300010  RH  087%=      5-min Rain = 0
KLA1 100413Z 29004KT 03/01 A304 RMK A01 T00300010  RH  087%=      5-min Rain = 0
KLA1 100414Z 29003KT 03/01 A304 RMK A01 T00300010  RH  086%=      5-min Rain = 0
KLA1 100415Z 29003KT 03/01 A304 RMK A01 T00300010  RH  087%=      5-min Rain = 0
KLA1 100416Z 29002KT 03/01 A304 RMK A01 T00300010  RH  086%=      5-min Rain = 0
KLA1 100417Z 34000KT 03/01 A304 RMK A01 T00290007  RH  086%=      5-min Rain = 0
KLA1 100418Z 03000KT 03/00 A304 RMK A01 T00260004  RH  085%=      5-min Rain = 0
KLA1 100419Z 04000KT 03/00 A304 RMK A01 T00250002  RH  085%=      5-min Rain = 0
KLA1 100420Z 00000KT 02/00 A304 RMK A01 T00230002  RH  086%=      5-min Rain = 0
KLA1 100421Z 00000KT 02/00 A304 RMK A01 T00230003  RH  087%=      5-min Rain = 0
KLA1 100422Z 36000KT 02/00 A304 RMK A01 T00220004  RH  088%=      5-min Rain = 0
KLA1 100423Z 35000KT 02/01 A304 RMK A01 T00220005  RH  088%=      5-min Rain = 0
KLA1 100424Z 35000KT 02/01 A304 RMK A01 T00220006  RH  089%=      5-min Rain = 0
KLA1 100425Z 00000KT 02/01 A304 RMK A01 T00220006  RH  089%=      5-min Rain = 0
KLA1 100426Z 33000KT 02/01 A304 RMK A01 T00220007  RH  089%=      5-min Rain = 0
KLA1 100427Z 31001KT 02/01 A304 RMK A01 T00230007  RH  089%=      5-min Rain = 0
KLA1 100428Z 29001KT 02/01 A304 RMK A01 T00220007  RH  090%=      5-min Rain = 0
KLA1 100429Z 29002KT 02/01 A304 RMK A01 T00230008  RH  090%=      5-min Rain = 0
KLA1 100430Z 29002KT 02/01 A304 RMK A01 T00240009  RH  090%=      5-min Rain = 0
KLA1 100431Z 28002KT 02/01 A304 RMK A01 T00240009  RH  090%=      5-min Rain = 0
KLA1 100432Z 28003KT 03/01 A3041 RMK A01 T00250009  RH  090%=      5-min Rain = 0
KLA1 100433Z 29003KT 03/01 A3041 RMK A01 T00250010  RH  089%=      5-min Rain = 0
KLA1 100434Z 30003KT 03/01 A3041 RMK A01 T00260010  RH  089%=      5-min Rain = 0
KLA1 100435Z 30004KT 03/01 A3041 RMK A01 T00250009  RH  089%=      5-min Rain = 0
KLA1 100436Z 31003KT 03/01 A3041 RMK A01 T00250008  RH  089%=      5-min Rain = 0
KLA1 100437Z 33002KT 02/01 A3041 RMK A01 T00240007  RH  089%=      5-min Rain = 0
KLA1 100438Z 35001KT 02/01 A3041 RMK A01 T00220005  RH  088%=      5-min Rain = 0
KLA1 100439Z 02001KT 02/00 A3041 RMK A01 T00200003  RH  088%=      5-min Rain = 0
KLA1 100440Z 35002KT 02/00 A3041 RMK A01 T00200004  RH  089%=      5-min Rain = 0
KLA1 100441Z 36001KT 02/00 A3041 RMK A01 T00200004  RH  090%=      5-min Rain = 0
KLA1 100442Z 00001KT 02/01 A3041 RMK A01 T00190005  RH  090%=      5-min Rain = 0
KLA1 100443Z 00001KT 02/01 A3041 RMK A01 T00190005  RH  090%=      5-min Rain = 0
KLA1 100444Z 01001KT 02/01 A3041 RMK A01 T00190006  RH  091%=      5-min Rain = 0
KLA1 100445Z 01001KT 02/01 A3041 RMK A01 T00200006  RH  091%=      5-min Rain = 0
KLA1 100446Z 00000KT 02/01 A3041 RMK A01 T00200007  RH  091%=      5-min Rain = 0
KLA1 100447Z 32000KT 02/01 A3041 RMK A01 T00210008  RH  091%=      5-min Rain = 0
KLA1 100448Z 00000KT 02/01 A3041 RMK A01 T00220009  RH  091%=      5-min Rain = 0
KLA1 100449Z 00000KT 02/01 A3041 RMK A01 T00230009  RH  091%=      5-min Rain = 0
KLA1 100450Z 00000KT 02/01 A3041 RMK A01 T00220007  RH  090%=      5-min Rain = 0
KLA1 100451Z 03001KT 02/00 A3041 RMK A01 T00200004  RH  089%=      5-min Rain = 0
KLA1 100452Z 01001KT 02/00 A3041 RMK A01 T00190003  RH  089%=      5-min Rain = 0
KLA1 100453Z 03000KT 02/00 A3041 RMK A01 T00190003  RH  089%=      5-min Rain = 0
KLA1 100454Z 03000KT 02/00 A3041 RMK A01 T00180003  RH  090%=      5-min Rain = 0
KLA1 100455Z 00000KT 02/00 A3041 RMK A01 T00170001  RH  089%=      5-min Rain = 0
KLA1 100456Z 09001KT 02/00 A3041 RMK A01 T00160002  RH  090%=      5-min Rain = 0
KLA1 100457Z 10001KT 02/01 A3041 RMK A01 T00200008  RH  092%=      5-min Rain = 0
KLA1 100458Z 11001KT 02/01 A3041 RMK A01 T00220009  RH  091%=      5-min Rain = 0
KLA1 100459Z 10001KT 02/01 A3041 RMK A01 T00230009  RH  090%=      5-min Rain = 0
KLA1 100500Z 09001KT 02/01 A3041 RMK A01 T00240008  RH  089%=      5-min Rain = 0
KLA1 100501Z 08001KT 02/01 A3041 RMK A01 T00230005  RH  088%=      5-min Rain = 0
KLA1 100502Z 07000KT 02/00 A3041 RMK A01 T00210003  RH  087%=      5-min Rain = 0
KLA1 100503Z 07001KT 02/M00 A3041 RMK A01 T00191001  RH  087%=      5-min Rain = 0
KLA1 100504Z 07000KT 02/M00 A3041 RMK A01 T00161002  RH  088%=      5-min Rain = 0
KLA1 100505Z 00000KT 02/M00 A3041 RMK A01 T00161001  RH  089%=      5-min Rain = 0
KLA1 100506Z 00000KT 02/00 A3041 RMK A01 T00150001  RH  090%=      5-min Rain = 0
KLA1 100507Z 00000KT 02/00 A3041 RMK A01 T00150000  RH  090%=      5-min Rain = 0
KLA1 100508Z 18000KT 01/M00 A3041 RMK A01 T00141001  RH  090%=      5-min Rain = 0
KLA1 100509Z 26000KT 01/M00 A3041 RMK A01 T00121003  RH  090%=      5-min Rain = 0
KLA1 100510Z 00000KT 01/M00 A3041 RMK A01 T00121002  RH  090%=      5-min Rain = 0
KLA1 100511Z 00000KT 01/M00 A3041 RMK A01 T00111001  RH  091%=      5-min Rain = 0
KLA1 100512Z 00000KT 01/00 A3041 RMK A01 T00120000  RH  092%=      5-min Rain = 0
KLA1 100513Z 29000KT 01/00 A3041 RMK A01 T00120001  RH  092%=      5-min Rain = 0
KLA1 100514Z 28001KT 01/00 A3041 RMK A01 T00130002  RH  092%=      5-min Rain = 0
KLA1 100515Z 28001KT 01/00 A3041 RMK A01 T00130003  RH  093%=      5-min Rain = 0
KLA1 100516Z 28001KT 02/01 A3041 RMK A01 T00170008  RH  094%=      5-min Rain = 0
KLA1 100517Z 28002KT 02/01 A3041 RMK A01 T00190010  RH  093%=      5-min Rain = 0
KLA1 100518Z 28002KT 02/01 A3041 RMK A01 T00200009  RH  092%=      5-min Rain = 0
KLA1 100519Z 28002KT 02/01 A3041 RMK A01 T00210008  RH  092%=      5-min Rain = 0
KLA1 100520Z 28003KT 02/01 A3041 RMK A01 T00210008  RH  091%=      5-min Rain = 0
KLA1 100521Z 28003KT 02/01 A3041 RMK A01 T00220009  RH  091%=      5-min Rain = 0
KLA1 100522Z 28004KT 02/01 A3041 RMK A01 T00220008  RH  091%=      5-min Rain = 0
KLA1 100523Z 28004KT 02/01 A3041 RMK A01 T00210007  RH  091%=      5-min Rain = 0
KLA1 100524Z 28004KT 02/01 A3041 RMK A01 T00200007  RH  091%=      5-min Rain = 0
KLA1 100525Z 28004KT 02/01 A3041 RMK A01 T00190006  RH  091%=      5-min Rain = 0
KLA1 100526Z 29004KT 02/01 A3041 RMK A01 T00180006  RH  092%=      5-min Rain = 0
KLA1 100527Z 29005KT 02/01 A3041 RMK A01 T00170006  RH  092%=      5-min Rain = 0
KLA1 100528Z 30005KT 02/01 A3041 RMK A01 T00180007  RH  093%=      5-min Rain = 0
KLA1 100529Z 30004KT 02/01 A3041 RMK A01 T00170007  RH  093%=      5-min Rain = 0
KLA1 100530Z 30005KT 02/01 A3041 RMK A01 T00170008  RH  094%=      5-min Rain = 0
KLA1 100531Z 30004KT 02/01 A3041 RMK A01 T00170008  RH  094%=      5-min Rain = 0
KLA1 100532Z 32004KT 02/01 A3041 RMK A01 T00170008  RH  094%=      5-min Rain = 0
KLA1 100533Z 32003KT 02/00 A3041 RMK A01 T00150003  RH  092%=      5-min Rain = 0
KLA1 100534Z 32003KT 01/M00 A3041 RMK A01 T00121001  RH  091%=      5-min Rain = 0
KLA1 100535Z 31003KT 01/M00 A3041 RMK A01 T00111002  RH  091%=      5-min Rain = 0
KLA1 100536Z 31002KT 01/00 A3041 RMK A01 T001100-0  RH  092%=      5-min Rain = 0
KLA1 100537Z 32001KT 01/00 A3041 RMK A01 T00110001  RH  093%=      5-min Rain = 0
KLA1 100538Z 33002KT 01/00 A3041 RMK A01 T00120002  RH  093%=      5-min Rain = 0
KLA1 100539Z 33003KT 01/00 A3041 RMK A01 T00130003  RH  094%=      5-min Rain = 0
KLA1 100540Z 33004KT 01/00 A3041 RMK A01 T00130003  RH  093%=      5-min Rain = 0
KLA1 100541Z 33004KT 01/00 A3041 RMK A01 T00140004  RH  093%=      5-min Rain = 0
KLA1 100542Z 32004KT 01/00 A3041 RMK A01 T00140004  RH  093%=      5-min Rain = 0
KLA1 100543Z 32005KT 02/01 A3041 RMK A01 T00150005  RH  093%=      5-min Rain = 0
KLA1 100544Z 32005KT 02/01 A3041 RMK A01 T00180009  RH  094%=      5-min Rain = 0
KLA1 100545Z 32005KT 02/01 A3041 RMK A01 T00210011  RH  093%=      5-min Rain = 0
KLA1 100546Z 32004KT 02/01 A3041 RMK A01 T00240012  RH  092%=      5-min Rain = 0
KLA1 100547Z 32004KT 03/01 A3041 RMK A01 T00260012  RH  091%=      5-min Rain = 0
KLA1 100548Z 32004KT 03/01 A3041 RMK A01 T00260011  RH  089%=      5-min Rain = 0
KLA1 100549Z 31003KT 03/01 A3041 RMK A01 T00260007  RH  088%=      5-min Rain = 0
KLA1 100550Z 32001KT 02/00 A3041 RMK A01 T00210000  RH  086%=      5-min Rain = 0
KLA1 100551Z 28001KT 02/M00 A3041 RMK A01 T00171002  RH  087%=      5-min Rain = 0
KLA1 100552Z 26000KT 02/M00 A3041 RMK A01 T00151003  RH  088%=      5-min Rain = 0
KLA1 100553Z 22000KT 01/M00 A3041 RMK A01 T00131003  RH  089%=      5-min Rain = 0
KLA1 100554Z 00000KT 01/M00 A3041 RMK A01 T00121003  RH  090%=      5-min Rain = 0
KLA1 100555Z 19000KT 01/M00 A3041 RMK A01 T00121002  RH  091%=      5-min Rain = 0
KLA1 100556Z 00000KT 01/M00 A3041 RMK A01 T00101003  RH  091%=      5-min Rain = 0
KLA1 100557Z 00000KT 01/M00 A3041 RMK A01 T00101003  RH  091%=      5-min Rain = 0
KLA1 100558Z 00000KT 01/M00 A3041 RMK A01 T00081004  RH  091%=      5-min Rain = 0
KLA1 100559Z 00000KT 01/M01 A3041 RMK A01 T00071005  RH  092%=      5-min Rain = 0

Page generated in 0.1249 seconds.